Observation data for Sierra Blanca on 01/20/2019      Previous  Date  Next       Current Mesonet Observations  Soil Data  Daily Summary Page  Observations in Plain Language
KSB1 200600Z 21001KT 08/M10 A3034 RMK A01 T00811099  RH  027%=      5-min Rain = 0
KSB1 200601Z 11003KT 08/M10 A3034 RMK A01 T00791100  RH  027%=      5-min Rain = 0
KSB1 200602Z 10004KT 06/M11 A3034 RMK A01 T00571111  RH  029%=      5-min Rain = 0
KSB1 200603Z 09003KT 04/M11 A3034 RMK A01 T00351114  RH  033%=      5-min Rain = 0
KSB1 200604Z 09003KT 02/M11 A3034 RMK A01 T00241111  RH  036%=      5-min Rain = 0
KSB1 200605Z 10003KT 02/M11 A3034 RMK A01 T00201107  RH  038%=      5-min Rain = 0
KSB1 200606Z 10004KT 02/M10 A3034 RMK A01 T00181104  RH  040%=      5-min Rain = 0
KSB1 200607Z 09004KT 02/M10 A3034 RMK A01 T00171104  RH  040%=      5-min Rain = 0
KSB1 200608Z 08003KT 02/M10 A3034 RMK A01 T00161102  RH  041%=      5-min Rain = 0
KSB1 200609Z 09002KT 02/M10 A3034 RMK A01 T00151102  RH  042%=      5-min Rain = 0
KSB1 200610Z 14002KT 01/M10 A3034 RMK A01 T00141102  RH  042%=      5-min Rain = 0
KSB1 200611Z 16002KT 02/M10 A3034 RMK A01 T00151100  RH  042%=      5-min Rain = 0
KSB1 200612Z 16002KT 02/M10 A3034 RMK A01 T00171099  RH  042%=      5-min Rain = 0
KSB1 200613Z 10003KT 02/M10 A3034 RMK A01 T00211097  RH  041%=      5-min Rain = 0
KSB1 200614Z 08003KT 02/M10 A3034 RMK A01 T00241098  RH  040%=      5-min Rain = 0
KSB1 200615Z 12002KT 02/M10 A3034 RMK A01 T00241099  RH  040%=      5-min Rain = 0
KSB1 200616Z 07004KT 02/M10 A3034 RMK A01 T00241100  RH  040%=      5-min Rain = 0
KSB1 200617Z 07004KT 02/M10 A3034 RMK A01 T00241100  RH  039%=      5-min Rain = 0
KSB1 200618Z 06004KT 02/M10 A3034 RMK A01 T00211102  RH  040%=      5-min Rain = 0
KSB1 200619Z 06004KT 02/M10 A3034 RMK A01 T00201103  RH  040%=      5-min Rain = 0
KSB1 200620Z 05004KT 02/M10 A3034 RMK A01 T00191102  RH  040%=      5-min Rain = 0
KSB1 200621Z 05004KT 02/M10 A3034 RMK A01 T00181102  RH  040%=      5-min Rain = 0
KSB1 200622Z 05004KT 02/M10 A3034 RMK A01 T00181102  RH  040%=      5-min Rain = 0
KSB1 200623Z 05003KT 02/M10 A3034 RMK A01 T00201102  RH  040%=      5-min Rain = 0
KSB1 200624Z 04003KT 02/M10 A3034 RMK A01 T00221102  RH  039%=      5-min Rain = 0
KSB1 200625Z 04002KT 02/M10 A3034 RMK A01 T00241102  RH  039%=      5-min Rain = 0
KSB1 200626Z 04002KT 03/M10 A3034 RMK A01 T00251102  RH  039%=      5-min Rain = 0
KSB1 200627Z 03002KT 03/M10 A3034 RMK A01 T00271102  RH  038%=      5-min Rain = 0
KSB1 200628Z 01003KT 03/M10 A3034 RMK A01 T00281102  RH  038%=      5-min Rain = 0
KSB1 200629Z 00003KT 03/M10 A3034 RMK A01 T00291101  RH  038%=      5-min Rain = 0
KSB1 200630Z 35004KT 03/M10 A3034 RMK A01 T00301101  RH  038%=      5-min Rain = 0
KSB1 200631Z 35003KT 03/M10 A3034 RMK A01 T00301101  RH  038%=      5-min Rain = 0
KSB1 200632Z 35004KT 03/M10 A3034 RMK A01 T00311101  RH  037%=      5-min Rain = 0
KSB1 200633Z 34004KT 03/M10 A3034 RMK A01 T00321101  RH  037%=      5-min Rain = 0
KSB1 200634Z 34004KT 03/M10 A3034 RMK A01 T00321101  RH  037%=      5-min Rain = 0
KSB1 200635Z 35005KT 03/M10 A3034 RMK A01 T00331101  RH  037%=      5-min Rain = 0
KSB1 200636Z 35005KT 03/M10 A3034 RMK A01 T00341100  RH  037%=      5-min Rain = 0
KSB1 200637Z 35005KT 03/M10 A3034 RMK A01 T00341100  RH  037%=      5-min Rain = 0
KSB1 200638Z 35004KT 03/M10 A3034 RMK A01 T00341100  RH  037%=      5-min Rain = 0
KSB1 200639Z 35004KT 04/M10 A3034 RMK A01 T00351100  RH  036%=      5-min Rain = 0
KSB1 200640Z 35004KT 04/M10 A3033 RMK A01 T00351100  RH  037%=      5-min Rain = 0
KSB1 200641Z 34004KT 04/M10 A3033 RMK A01 T00351100  RH  037%=      5-min Rain = 0
KSB1 200642Z 34004KT 04/M10 A3033 RMK A01 T00361100  RH  036%=      5-min Rain = 0
KSB1 200643Z 33004KT 04/M10 A3033 RMK A01 T00361100  RH  036%=      5-min Rain = 0
KSB1 200644Z 34004KT 04/M10 A3033 RMK A01 T00361100  RH  036%=      5-min Rain = 0
KSB1 200645Z 35005KT 04/M10 A3033 RMK A01 T00361100  RH  036%=      5-min Rain = 0
KSB1 200646Z 36005KT 04/M10 A3033 RMK A01 T00361100  RH  036%=      5-min Rain = 0
KSB1 200647Z 36005KT 04/M10 A3033 RMK A01 T00361100  RH  036%=      5-min Rain = 0
KSB1 200648Z 35005KT 04/M10 A3033 RMK A01 T00371100  RH  036%=      5-min Rain = 0
KSB1 200649Z 34003KT 04/M10 A3033 RMK A01 T00351101  RH  036%=      5-min Rain = 0
KSB1 200650Z 34004KT 03/M10 A3033 RMK A01 T00321102  RH  037%=      5-min Rain = 0
KSB1 200651Z 34004KT 03/M10 A3033 RMK A01 T00311101  RH  037%=      5-min Rain = 0
KSB1 200652Z 34003KT 03/M10 A3033 RMK A01 T00311100  RH  038%=      5-min Rain = 0
KSB1 200653Z 32001KT 03/M10 A3033 RMK A01 T00311100  RH  038%=      5-min Rain = 0
KSB1 200654Z 30000KT 03/M10 A3033 RMK A01 T00261104  RH  038%=      5-min Rain = 0
KSB1 200655Z 35002KT 02/M11 A3033 RMK A01 T00221105  RH  038%=      5-min Rain = 0
KSB1 200656Z 35003KT 02/M10 A3033 RMK A01 T00221103  RH  039%=      5-min Rain = 0
KSB1 200657Z 34003KT 02/M10 A3033 RMK A01 T00241101  RH  039%=      5-min Rain = 0
KSB1 200658Z 35004KT 03/M10 A3033 RMK A01 T00281099  RH  039%=      5-min Rain = 0
KSB1 200659Z 34003KT 03/M10 A3033 RMK A01 T00331098  RH  038%=      5-min Rain = 0
KSB1 200700Z 34003KT 04/M10 A3033 RMK A01 T00351098  RH  037%=      5-min Rain = 0
KSB1 200701Z 34003KT 04/M10 A3033 RMK A01 T00361098  RH  037%=      5-min Rain = 0
KSB1 200702Z 34002KT 04/M10 A3033 RMK A01 T00351100  RH  037%=      5-min Rain = 0
KSB1 200703Z 33001KT 03/M10 A3033 RMK A01 T00341100  RH  037%=      5-min Rain = 0
KSB1 200704Z 28001KT 03/M10 A3033 RMK A01 T00341100  RH  037%=      5-min Rain = 0
KSB1 200705Z 28001KT 03/M10 A3033 RMK A01 T00341100  RH  037%=      5-min Rain = 0
KSB1 200706Z 27001KT 03/M10 A3033 RMK A01 T00341100  RH  037%=      5-min Rain = 0
KSB1 200707Z 26001KT 04/M10 A3033 RMK A01 T00351100  RH  037%=      5-min Rain = 0
KSB1 200708Z 00000KT 04/M10 A3033 RMK A01 T00351099  RH  037%=      5-min Rain = 0
KSB1 200709Z 19000KT 03/M10 A3033 RMK A01 T00341099  RH  037%=      5-min Rain = 0
KSB1 200710Z 20002KT 03/M10 A3033 RMK A01 T00331100  RH  037%=      5-min Rain = 0
KSB1 200711Z 05001KT 03/M10 A3033 RMK A01 T00311100  RH  037%=      5-min Rain = 0
KSB1 200712Z 00000KT 03/M10 A3033 RMK A01 T00301100  RH  038%=      5-min Rain = 0
KSB1 200713Z 00000KT 03/M10 A3033 RMK A01 T00311100  RH  038%=      5-min Rain = 0
KSB1 200714Z 00000KT 03/M10 A3033 RMK A01 T00341098  RH  037%=      5-min Rain = 0
KSB1 200715Z 19000KT 04/M10 A3033 RMK A01 T00351099  RH  037%=      5-min Rain = 0
KSB1 200716Z 19000KT 03/M10 A3033 RMK A01 T00341100  RH  037%=      5-min Rain = 0
KSB1 200717Z 00000KT 04/M10 A3033 RMK A01 T00351100  RH  037%=      5-min Rain = 0
KSB1 200718Z 00000KT 04/M10 A3033 RMK A01 T00361100  RH  036%=      5-min Rain = 0
KSB1 200719Z 24000KT 04/M10 A3033 RMK A01 T00371099  RH  036%=      5-min Rain = 0
KSB1 200720Z 23001KT 04/M10 A3033 RMK A01 T00401099  RH  036%=      5-min Rain = 0
KSB1 200721Z 25001KT 04/M10 A3033 RMK A01 T00411099  RH  035%=      5-min Rain = 0
KSB1 200722Z 26001KT 04/M10 A3033 RMK A01 T00411100  RH  035%=      5-min Rain = 0
KSB1 200723Z 27001KT 04/M10 A3033 RMK A01 T00421101  RH  035%=      5-min Rain = 0
KSB1 200724Z 27001KT 04/M10 A3033 RMK A01 T00421101  RH  035%=      5-min Rain = 0
KSB1 200725Z 29000KT 04/M10 A3033 RMK A01 T00431100  RH  034%=      5-min Rain = 0
KSB1 200726Z 00000KT 05/M10 A3033 RMK A01 T00451100  RH  034%=      5-min Rain = 0
KSB1 200727Z 00000KT 05/M10 A3033 RMK A01 T00471100  RH  034%=      5-min Rain = 0
KSB1 200728Z 26000KT 05/M10 A3033 RMK A01 T00481100  RH  033%=      5-min Rain = 0
KSB1 200729Z 26001KT 05/M10 A3033 RMK A01 T00491100  RH  033%=      5-min Rain = 0
KSB1 200730Z 26002KT 05/M10 A3033 RMK A01 T00491101  RH  033%=      5-min Rain = 0
KSB1 200731Z 27002KT 05/M10 A3033 RMK A01 T00501100  RH  033%=      5-min Rain = 0
KSB1 200732Z 27003KT 05/M10 A3033 RMK A01 T00521099  RH  032%=      5-min Rain = 0
KSB1 200733Z 26003KT 05/M10 A3033 RMK A01 T00541099  RH  032%=      5-min Rain = 0
KSB1 200734Z 26003KT 06/M10 A3033 RMK A01 T00561099  RH  032%=      5-min Rain = 0
KSB1 200735Z 25003KT 06/M10 A3033 RMK A01 T00571099  RH  032%=      5-min Rain = 0
KSB1 200736Z 25003KT 06/M10 A3033 RMK A01 T00571099  RH  032%=      5-min Rain = 0
KSB1 200737Z 24003KT 06/M10 A3033 RMK A01 T00571098  RH  032%=      5-min Rain = 0
KSB1 200738Z 23003KT 06/M10 A3033 RMK A01 T00581098  RH  032%=      5-min Rain = 0
KSB1 200739Z 23003KT 06/M10 A3033 RMK A01 T00581098  RH  032%=      5-min Rain = 0
KSB1 200740Z 24003KT 06/M10 A3033 RMK A01 T00581098  RH  032%=      5-min Rain = 0
KSB1 200741Z 25003KT 06/M10 A3033 RMK A01 T00591098  RH  031%=      5-min Rain = 0
KSB1 200742Z 25003KT 06/M10 A3033 RMK A01 T00591098  RH  031%=      5-min Rain = 0
KSB1 200743Z 26004KT 06/M10 A3033 RMK A01 T00591099  RH  031%=      5-min Rain = 0
KSB1 200744Z 27004KT 06/M10 A3033 RMK A01 T00591099  RH  031%=      5-min Rain = 0
KSB1 200745Z 27003KT 06/M10 A3033 RMK A01 T00601099  RH  031%=      5-min Rain = 0
KSB1 200746Z 27003KT 06/M10 A3033 RMK A01 T00601099  RH  031%=      5-min Rain = 0
KSB1 200747Z 27003KT 06/M10 A3033 RMK A01 T00611098  RH  031%=      5-min Rain = 0
KSB1 200748Z 26004KT 06/M10 A3033 RMK A01 T00621098  RH  031%=      5-min Rain = 0
KSB1 200749Z 25004KT 06/M10 A3033 RMK A01 T00631097  RH  031%=      5-min Rain = 0
KSB1 200750Z 25004KT 06/M10 A3033 RMK A01 T00641097  RH  031%=      5-min Rain = 0
KSB1 200751Z 25005KT 06/M10 A3033 RMK A01 T00631097  RH  031%=      5-min Rain = 0
KSB1 200752Z 25005KT 06/M10 A3033 RMK A01 T00611097  RH  031%=      5-min Rain = 0
KSB1 200753Z 24005KT 06/M10 A3033 RMK A01 T00601096  RH  032%=      5-min Rain = 0
KSB1 200754Z 24005KT 06/M10 A3033 RMK A01 T00601096  RH  032%=      5-min Rain = 0
KSB1 200755Z 24004KT 06/M10 A3033 RMK A01 T00601096  RH  032%=      5-min Rain = 0
KSB1 200756Z 24004KT 06/M10 A3033 RMK A01 T00621096  RH  031%=      5-min Rain = 0
KSB1 200757Z 24004KT 06/M10 A3033 RMK A01 T00641095  RH  031%=      5-min Rain = 0
KSB1 200758Z 25003KT 07/M10 A3033 RMK A01 T00661095  RH  031%=      5-min Rain = 0
KSB1 200759Z 26003KT 07/M10 A3033 RMK A01 T00671096  RH  030%=      5-min Rain = 0
KSB1 200800Z 26003KT 07/M10 A3033 RMK A01 T00681096  RH  030%=      5-min Rain = 0
KSB1 200801Z 27003KT 07/M10 A3033 RMK A01 T00691096  RH  030%=      5-min Rain = 0
KSB1 200802Z 27003KT 07/M10 A3033 RMK A01 T00691096  RH  030%=      5-min Rain = 0
KSB1 200803Z 27002KT 07/M10 A3033 RMK A01 T00701096  RH  029%=      5-min Rain = 0
KSB1 200804Z 27002KT 07/M10 A3033 RMK A01 T00711096  RH  029%=      5-min Rain = 0
KSB1 200805Z 26002KT 07/M10 A3033 RMK A01 T00711096  RH  029%=      5-min Rain = 0
KSB1 200806Z 27002KT 07/M10 A3033 RMK A01 T00711096  RH  029%=      5-min Rain = 0
KSB1 200807Z 29001KT 07/M10 A3033 RMK A01 T00711097  RH  029%=      5-min Rain = 0
KSB1 200808Z 30002KT 07/M10 A3033 RMK A01 T00731097  RH  029%=      5-min Rain = 0
KSB1 200809Z 30002KT 07/M10 A3033 RMK A01 T00741098  RH  028%=      5-min Rain = 0
KSB1 200810Z 29002KT 08/M10 A3033 RMK A01 T00751098  RH  028%=      5-min Rain = 0
KSB1 200811Z 28002KT 08/M10 A3033 RMK A01 T00761098  RH  028%=      5-min Rain = 0
KSB1 200812Z 26002KT 08/M10 A3033 RMK A01 T00771098  RH  028%=      5-min Rain = 0
KSB1 200813Z 26003KT 08/M10 A3033 RMK A01 T00771099  RH  028%=      5-min Rain = 0
KSB1 200814Z 26002KT 08/M10 A3033 RMK A01 T00781098  RH  028%=      5-min Rain = 0
KSB1 200815Z 25003KT 08/M10 A3033 RMK A01 T00781098  RH  028%=      5-min Rain = 0
KSB1 200816Z 25002KT 08/M10 A3033 RMK A01 T00781098  RH  028%=      5-min Rain = 0
KSB1 200817Z 25002KT 08/M10 A3033 RMK A01 T00781098  RH  028%=      5-min Rain = 0
KSB1 200818Z 25002KT 08/M10 A3033 RMK A01 T00781098  RH  028%=      5-min Rain = 0
KSB1 200819Z 25002KT 08/M10 A3033 RMK A01 T00771098  RH  028%=      5-min Rain = 0
KSB1 200820Z 24003KT 08/M10 A3033 RMK A01 T00771099  RH  028%=      5-min Rain = 0
KSB1 200821Z 23002KT 08/M10 A3032 RMK A01 T00771098  RH  028%=      5-min Rain = 0
KSB1 200822Z 23002KT 08/M10 A3033 RMK A01 T00761098  RH  028%=      5-min Rain = 0
KSB1 200823Z 23002KT 08/M10 A3032 RMK A01 T00751098  RH  028%=      5-min Rain = 0
KSB1 200824Z 22002KT 07/M10 A3032 RMK A01 T00741098  RH  028%=      5-min Rain = 0
KSB1 200825Z 22002KT 07/M10 A3032 RMK A01 T00741099  RH  028%=      5-min Rain = 0
KSB1 200826Z 21002KT 07/M10 A3032 RMK A01 T00731098  RH  028%=      5-min Rain = 0
KSB1 200827Z 20002KT 07/M10 A3032 RMK A01 T00711099  RH  029%=      5-min Rain = 0
KSB1 200828Z 20002KT 07/M10 A3032 RMK A01 T00661100  RH  030%=      5-min Rain = 0
KSB1 200829Z 20002KT 06/M10 A3032 RMK A01 T00571103  RH  031%=      5-min Rain = 0
KSB1 200830Z 20002KT 05/M10 A3032 RMK A01 T00521102  RH  032%=      5-min Rain = 0
KSB1 200831Z 20001KT 05/M10 A3032 RMK A01 T00501101  RH  033%=      5-min Rain = 0
KSB1 200832Z 22001KT 05/M10 A3032 RMK A01 T00501099  RH  033%=      5-min Rain = 0
KSB1 200833Z 22001KT 05/M10 A3032 RMK A01 T00471099  RH  034%=      5-min Rain = 0
KSB1 200834Z 22001KT 05/M10 A3032 RMK A01 T00461099  RH  034%=      5-min Rain = 0
KSB1 200835Z 24001KT 04/M10 A3032 RMK A01 T00431099  RH  035%=      5-min Rain = 0
KSB1 200836Z 24001KT 04/M10 A3032 RMK A01 T00351101  RH  036%=      5-min Rain = 0
KSB1 200837Z 24001KT 03/M10 A3033 RMK A01 T00331100  RH  037%=      5-min Rain = 0
KSB1 200838Z 23001KT 03/M10 A3033 RMK A01 T00331099  RH  037%=      5-min Rain = 0
KSB1 200839Z 23001KT 04/M10 A3033 RMK A01 T00351099  RH  037%=      5-min Rain = 0
KSB1 200840Z 23000KT 04/M10 A3033 RMK A01 T00371098  RH  037%=      5-min Rain = 0
KSB1 200841Z 00000KT 04/M10 A3032 RMK A01 T00391098  RH  036%=      5-min Rain = 0
KSB1 200842Z 00000KT 04/M10 A3032 RMK A01 T00401098  RH  036%=      5-min Rain = 0
KSB1 200843Z 05001KT 04/M10 A3032 RMK A01 T00411098  RH  036%=      5-min Rain = 0
KSB1 200844Z 05003KT 04/M10 A3032 RMK A01 T00421098  RH  035%=      5-min Rain = 0
KSB1 200845Z 04002KT 04/M10 A3032 RMK A01 T00421098  RH  035%=      5-min Rain = 0
KSB1 200846Z 02002KT 04/M10 A3032 RMK A01 T00431098  RH  035%=      5-min Rain = 0
KSB1 200847Z 36001KT 04/M10 A3032 RMK A01 T00441098  RH  035%=      5-min Rain = 0
KSB1 200848Z 32001KT 05/M10 A3032 RMK A01 T00451098  RH  035%=      5-min Rain = 0
KSB1 200849Z 28002KT 04/M10 A3032 RMK A01 T00441098  RH  035%=      5-min Rain = 0
KSB1 200850Z 28002KT 04/M10 A3032 RMK A01 T00441097  RH  035%=      5-min Rain = 0
KSB1 200851Z 28003KT 05/M10 A3032 RMK A01 T00471097  RH  034%=      5-min Rain = 0
KSB1 200852Z 27003KT 05/M10 A3032 RMK A01 T00491097  RH  034%=      5-min Rain = 0
KSB1 200853Z 27003KT 05/M10 A3032 RMK A01 T00511097  RH  033%=      5-min Rain = 0
KSB1 200854Z 26003KT 05/M10 A3033 RMK A01 T00531096  RH  033%=      5-min Rain = 0
KSB1 200855Z 26003KT 05/M10 A3033 RMK A01 T00541097  RH  033%=      5-min Rain = 0
KSB1 200856Z 25003KT 06/M10 A3033 RMK A01 T00551097  RH  032%=      5-min Rain = 0
KSB1 200857Z 25003KT 06/M10 A3033 RMK A01 T00561097  RH  032%=      5-min Rain = 0
KSB1 200858Z 25003KT 06/M10 A3033 RMK A01 T00571097  RH  032%=      5-min Rain = 0
KSB1 200859Z 24003KT 06/M10 A3033 RMK A01 T00581097  RH  032%=      5-min Rain = 0
KSB1 200900Z 24003KT 06/M10 A3033 RMK A01 T00591097  RH  032%=      5-min Rain = 0
KSB1 200901Z 20002KT 06/M10 A3033 RMK A01 T00581098  RH  032%=      5-min Rain = 0
KSB1 200902Z 18001KT 05/M10 A3033 RMK A01 T00481103  RH  033%=      5-min Rain = 0
KSB1 200903Z 21001KT 04/M11 A3033 RMK A01 T00351107  RH  035%=      5-min Rain = 0
KSB1 200904Z 20001KT 03/M11 A3033 RMK A01 T00291106  RH  037%=      5-min Rain = 0
KSB1 200905Z 21002KT 03/M10 A3033 RMK A01 T00281101  RH  038%=      5-min Rain = 0
KSB1 200906Z 20001KT 03/M10 A3032 RMK A01 T00321098  RH  038%=      5-min Rain = 0
KSB1 200907Z 19001KT 04/M10 A3032 RMK A01 T00361096  RH  038%=      5-min Rain = 0
KSB1 200908Z 20001KT 04/M10 A3032 RMK A01 T00361097  RH  037%=      5-min Rain = 0
KSB1 200909Z 20001KT 04/M10 A3032 RMK A01 T00351098  RH  037%=      5-min Rain = 0
KSB1 200910Z 18001KT 03/M10 A3032 RMK A01 T00331098  RH  038%=      5-min Rain = 0
KSB1 200911Z 20001KT 03/M10 A3032 RMK A01 T00311099  RH  038%=      5-min Rain = 0
KSB1 200912Z 18001KT 03/M10 A3032 RMK A01 T00291100  RH  038%=      5-min Rain = 0
KSB1 200913Z 19001KT 03/M10 A3032 RMK A01 T00291100  RH  038%=      5-min Rain = 0
KSB1 200914Z 19001KT 03/M10 A3032 RMK A01 T00291100  RH  038%=      5-min Rain = 0
KSB1 200915Z 20002KT 03/M10 A3032 RMK A01 T00301099  RH  038%=      5-min Rain = 0
KSB1 200916Z 19002KT 03/M10 A3032 RMK A01 T00311099  RH  038%=      5-min Rain = 0
KSB1 200917Z 19002KT 03/M10 A3032 RMK A01 T00321098  RH  038%=      5-min Rain = 0
KSB1 200918Z 18002KT 03/M10 A3032 RMK A01 T00331098  RH  037%=      5-min Rain = 0
KSB1 200919Z 17003KT 04/M10 A3032 RMK A01 T00351098  RH  037%=      5-min Rain = 0
KSB1 200920Z 17002KT 04/M10 A3032 RMK A01 T00351098  RH  037%=      5-min Rain = 0
KSB1 200921Z 16002KT 04/M10 A3032 RMK A01 T00361098  RH  037%=      5-min Rain = 0
KSB1 200922Z 16001KT 04/M10 A3032 RMK A01 T00361099  RH  037%=      5-min Rain = 0
KSB1 200923Z 16001KT 04/M10 A3032 RMK A01 T00361099  RH  037%=      5-min Rain = 0
KSB1 200924Z 13000KT 04/M10 A3032 RMK A01 T00351099  RH  037%=      5-min Rain = 0
KSB1 200925Z 08000KT 03/M10 A3032 RMK A01 T00341099  RH  037%=      5-min Rain = 0
KSB1 200926Z 07000KT 03/M10 A3032 RMK A01 T00341099  RH  037%=      5-min Rain = 0
KSB1 200927Z 06001KT 03/M10 A3032 RMK A01 T00341099  RH  037%=      5-min Rain = 0
KSB1 200928Z 07000KT 03/M10 A3032 RMK A01 T00341098  RH  037%=      5-min Rain = 0
KSB1 200929Z 00000KT 03/M10 A3032 RMK A01 T00341099  RH  037%=      5-min Rain = 0
KSB1 200930Z 00000KT 04/M10 A3032 RMK A01 T00351098  RH  037%=      5-min Rain = 0
KSB1 200931Z 00000KT 04/M10 A3032 RMK A01 T00361098  RH  037%=      5-min Rain = 0
KSB1 200932Z 00000KT 04/M10 A3032 RMK A01 T00371098  RH  036%=      5-min Rain = 0
KSB1 200933Z 00000KT 04/M10 A3032 RMK A01 T00381098  RH  036%=      5-min Rain = 0
KSB1 200934Z 00000KT 04/M10 A3032 RMK A01 T00381099  RH  036%=      5-min Rain = 0
KSB1 200935Z 00000KT 04/M10 A3031 RMK A01 T00381099  RH  036%=      5-min Rain = 0
KSB1 200936Z 00000KT 04/M10 A3031 RMK A01 T00381099  RH  036%=      5-min Rain = 0
KSB1 200937Z 00000KT 04/M10 A3031 RMK A01 T00391098  RH  036%=      5-min Rain = 0
KSB1 200938Z 23000KT 04/M10 A3031 RMK A01 T00391098  RH  036%=      5-min Rain = 0
KSB1 200939Z 23001KT 04/M10 A3031 RMK A01 T00391098  RH  036%=      5-min Rain = 0
KSB1 200940Z 24002KT 04/M10 A3031 RMK A01 T00391098  RH  036%=      5-min Rain = 0
KSB1 200941Z 24002KT 04/M10 A3031 RMK A01 T00391098  RH  036%=      5-min Rain = 0
KSB1 200942Z 24002KT 04/M10 A3031 RMK A01 T00391098  RH  036%=      5-min Rain = 0
KSB1 200943Z 24002KT 04/M10 A3031 RMK A01 T00391098  RH  036%=      5-min Rain = 0
KSB1 200944Z 23003KT 04/M10 A3031 RMK A01 T00391098  RH  036%=      5-min Rain = 0
KSB1 200945Z 22002KT 04/M10 A3031 RMK A01 T00391099  RH  036%=      5-min Rain = 0
KSB1 200946Z 22003KT 04/M10 A3031 RMK A01 T00401098  RH  036%=      5-min Rain = 0
KSB1 200947Z 22002KT 04/M10 A3031 RMK A01 T00401098  RH  036%=      5-min Rain = 0
KSB1 200948Z 22002KT 04/M10 A3031 RMK A01 T00401099  RH  036%=      5-min Rain = 0
KSB1 200949Z 22002KT 04/M10 A3031 RMK A01 T00401098  RH  036%=      5-min Rain = 0
KSB1 200950Z 22002KT 04/M10 A3031 RMK A01 T00411098  RH  036%=      5-min Rain = 0
KSB1 200951Z 22002KT 04/M10 A3031 RMK A01 T00411098  RH  035%=      5-min Rain = 0
KSB1 200952Z 23002KT 04/M10 A3031 RMK A01 T00421098  RH  035%=      5-min Rain = 0
KSB1 200953Z 24002KT 04/M10 A3031 RMK A01 T00431098  RH  035%=      5-min Rain = 0
KSB1 200954Z 25003KT 04/M10 A3031 RMK A01 T00431098  RH  035%=      5-min Rain = 0
KSB1 200955Z 26003KT 04/M10 A3031 RMK A01 T00431098  RH  035%=      5-min Rain = 0
KSB1 200956Z 26003KT 04/M10 A3031 RMK A01 T00421099  RH  035%=      5-min Rain = 0
KSB1 200957Z 26004KT 04/M10 A3031 RMK A01 T00411098  RH  035%=      5-min Rain = 0
KSB1 200958Z 26004KT 04/M10 A3031 RMK A01 T00411098  RH  035%=      5-min Rain = 0
KSB1 200959Z 26004KT 04/M10 A3031 RMK A01 T00421098  RH  035%=      5-min Rain = 0
KSB1 201000Z 26003KT 04/M10 A3031 RMK A01 T00441097  RH  035%=      5-min Rain = 0
KSB1 201001Z 26003KT 05/M10 A3031 RMK A01 T00451098  RH  035%=      5-min Rain = 0
KSB1 201002Z 27003KT 05/M10 A3031 RMK A01 T00451097  RH  035%=      5-min Rain = 0
KSB1 201003Z 28003KT 05/M10 A3031 RMK A01 T00461097  RH  035%=      5-min Rain = 0
KSB1 201004Z 28003KT 05/M10 A3031 RMK A01 T00471097  RH  034%=      5-min Rain = 0
KSB1 201005Z 28003KT 05/M10 A3031 RMK A01 T00491096  RH  034%=      5-min Rain = 0
KSB1 201006Z 28003KT 05/M10 A3031 RMK A01 T00511096  RH  034%=      5-min Rain = 0
KSB1 201007Z 28003KT 05/M10 A3031 RMK A01 T00511097  RH  034%=      5-min Rain = 0
KSB1 201008Z 27002KT 05/M10 A3031 RMK A01 T00531096  RH  033%=      5-min Rain = 0
KSB1 201009Z 28002KT 06/M10 A3031 RMK A01 T00551097  RH  033%=      5-min Rain = 0
KSB1 201010Z 27002KT 06/M10 A3031 RMK A01 T00571096  RH  032%=      5-min Rain = 0
KSB1 201011Z 27002KT 06/M10 A3031 RMK A01 T00581097  RH  032%=      5-min Rain = 0
KSB1 201012Z 27002KT 06/M10 A3031 RMK A01 T00591097  RH  032%=      5-min Rain = 0
KSB1 201013Z 28001KT 06/M10 A3031 RMK A01 T00611096  RH  031%=      5-min Rain = 0
KSB1 201014Z 29001KT 06/M10 A3031 RMK A01 T00601096  RH  032%=      5-min Rain = 0
KSB1 201015Z 30001KT 05/M10 A3031 RMK A01 T00511098  RH  033%=      5-min Rain = 0
KSB1 201016Z 30001KT 04/M10 A3031 RMK A01 T00421098  RH  035%=      5-min Rain = 0
KSB1 201017Z 31001KT 04/M10 A3031 RMK A01 T00351098  RH  037%=      5-min Rain = 0
KSB1 201018Z 02002KT 03/M10 A3031 RMK A01 T00311097  RH  039%=      5-min Rain = 0
KSB1 201019Z 03003KT 03/M10 A3031 RMK A01 T00291096  RH  040%=      5-min Rain = 0
KSB1 201020Z 02004KT 03/M10 A3031 RMK A01 T00281095  RH  040%=      5-min Rain = 0
KSB1 201021Z 01004KT 03/M10 A3031 RMK A01 T00301095  RH  039%=      5-min Rain = 0
KSB1 201022Z 00003KT 03/M10 A3031 RMK A01 T00321096  RH  039%=      5-min Rain = 0
KSB1 201023Z 00003KT 03/M10 A3031 RMK A01 T00331096  RH  038%=      5-min Rain = 0
KSB1 201024Z 01002KT 03/M10 A3031 RMK A01 T00341096  RH  038%=      5-min Rain = 0
KSB1 201025Z 01002KT 04/M10 A3031 RMK A01 T00351097  RH  038%=      5-min Rain = 0
KSB1 201026Z 35001KT 04/M10 A3031 RMK A01 T00361097  RH  037%=      5-min Rain = 0
KSB1 201027Z 35001KT 04/M10 A3031 RMK A01 T00371097  RH  037%=      5-min Rain = 0
KSB1 201028Z 35001KT 04/M10 A3031 RMK A01 T00401097  RH  036%=      5-min Rain = 0
KSB1 201029Z 36001KT 04/M10 A3031 RMK A01 T00411097  RH  036%=      5-min Rain = 0
KSB1 201030Z 00001KT 04/M10 A3031 RMK A01 T00411098  RH  036%=      5-min Rain = 0
KSB1 201031Z 01001KT 04/M10 A3031 RMK A01 T00421097  RH  036%=      5-min Rain = 0
KSB1 201032Z 02001KT 04/M10 A3031 RMK A01 T00421097  RH  035%=      5-min Rain = 0
KSB1 201033Z 02002KT 04/M10 A3031 RMK A01 T00431097  RH  035%=      5-min Rain = 0
KSB1 201034Z 02001KT 04/M10 A3031 RMK A01 T00421098  RH  035%=      5-min Rain = 0
KSB1 201035Z 03000KT 04/M10 A3031 RMK A01 T00421098  RH  035%=      5-min Rain = 0
KSB1 201036Z 00000KT 04/M10 A3031 RMK A01 T00421098  RH  035%=      5-min Rain = 0
KSB1 201037Z 00000KT 04/M10 A3031 RMK A01 T00421098  RH  035%=      5-min Rain = 0
KSB1 201038Z 01000KT 04/M10 A3031 RMK A01 T00431097  RH  035%=      5-min Rain = 0
KSB1 201039Z 00000KT 04/M10 A3031 RMK A01 T00431098  RH  035%=      5-min Rain = 0
KSB1 201040Z 34000KT 04/M10 A3031 RMK A01 T00421098  RH  035%=      5-min Rain = 0
KSB1 201041Z 18000KT 04/M10 A3031 RMK A01 T00421098  RH  035%=      5-min Rain = 0
KSB1 201042Z 19001KT 04/M10 A3031 RMK A01 T00421098  RH  035%=      5-min Rain = 0
KSB1 201043Z 19000KT 04/M10 A3031 RMK A01 T00421099  RH  035%=      5-min Rain = 0
KSB1 201044Z 23001KT 04/M10 A3031 RMK A01 T00431098  RH  035%=      5-min Rain = 0
KSB1 201045Z 25002KT 04/M10 A3031 RMK A01 T00441098  RH  035%=      5-min Rain = 0
KSB1 201046Z 26001KT 04/M10 A3031 RMK A01 T00431098  RH  035%=      5-min Rain = 0
KSB1 201047Z 25001KT 04/M10 A3031 RMK A01 T00401098  RH  036%=      5-min Rain = 0
KSB1 201048Z 24001KT 04/M10 A3031 RMK A01 T00381098  RH  036%=      5-min Rain = 0
KSB1 201049Z 25001KT 04/M10 A3031 RMK A01 T00351098  RH  037%=      5-min Rain = 0
KSB1 201050Z 25002KT 03/M10 A3031 RMK A01 T00331098  RH  038%=      5-min Rain = 0
KSB1 201051Z 25002KT 03/M10 A3031 RMK A01 T00321097  RH  038%=      5-min Rain = 0
KSB1 201052Z 25002KT 03/M10 A3031 RMK A01 T00321097  RH  038%=      5-min Rain = 0
KSB1 201053Z 25002KT 03/M10 A3031 RMK A01 T00321097  RH  038%=      5-min Rain = 0
KSB1 201054Z 26002KT 03/M10 A3031 RMK A01 T00321097  RH  038%=      5-min Rain = 0
KSB1 201055Z 27002KT 03/M10 A3031 RMK A01 T00331097  RH  038%=      5-min Rain = 0
KSB1 201056Z 27002KT 03/M10 A3031 RMK A01 T00341097  RH  038%=      5-min Rain = 0
KSB1 201057Z 27002KT 03/M10 A3031 RMK A01 T00341097  RH  038%=      5-min Rain = 0
KSB1 201058Z 27002KT 04/M10 A3031 RMK A01 T00351097  RH  037%=      5-min Rain = 0
KSB1 201059Z 27002KT 04/M10 A3031 RMK A01 T00371097  RH  037%=      5-min Rain = 0
KSB1 201100Z 28002KT 04/M10 A3031 RMK A01 T00391096  RH  037%=      5-min Rain = 0
KSB1 201101Z 28003KT 04/M10 A3031 RMK A01 T00391097  RH  036%=      5-min Rain = 0
KSB1 201102Z 27003KT 04/M10 A3031 RMK A01 T00391097  RH  036%=      5-min Rain = 0
KSB1 201103Z 26003KT 04/M10 A3031 RMK A01 T00401096  RH  036%=      5-min Rain = 0
KSB1 201104Z 26004KT 04/M10 A3031 RMK A01 T00401096  RH  036%=      5-min Rain = 0
KSB1 201105Z 26004KT 04/M10 A3031 RMK A01 T00411096  RH  036%=      5-min Rain = 0
KSB1 201106Z 25003KT 04/M10 A3031 RMK A01 T00411096  RH  036%=      5-min Rain = 0
KSB1 201107Z 25003KT 04/M10 A3031 RMK A01 T00411096  RH  036%=      5-min Rain = 0
KSB1 201108Z 25003KT 04/M10 A3031 RMK A01 T00421096  RH  036%=      5-min Rain = 0
KSB1 201109Z 25003KT 04/M10 A3031 RMK A01 T00421095  RH  036%=      5-min Rain = 0
KSB1 201110Z 25003KT 04/M10 A3031 RMK A01 T00431095  RH  036%=      5-min Rain = 0
KSB1 201111Z 26003KT 04/M10 A3031 RMK A01 T00431096  RH  036%=      5-min Rain = 0
KSB1 201112Z 26003KT 04/M10 A3031 RMK A01 T00421096  RH  036%=      5-min Rain = 0
KSB1 201113Z 26003KT 04/M10 A3031 RMK A01 T00411095  RH  036%=      5-min Rain = 0
KSB1 201114Z 27003KT 04/M10 A3031 RMK A01 T00421095  RH  036%=      5-min Rain = 0
KSB1 201115Z 26003KT 04/M10 A303 RMK A01 T00421095  RH  036%=      5-min Rain = 0
KSB1 201116Z 26003KT 04/M09 A303 RMK A01 T00431094  RH  036%=      5-min Rain = 0
KSB1 201117Z 26003KT 05/M09 A303 RMK A01 T00451094  RH  036%=      5-min Rain = 0
KSB1 201118Z 26003KT 05/M09 A303 RMK A01 T00471094  RH  035%=      5-min Rain = 0
KSB1 201119Z 27003KT 05/M09 A303 RMK A01 T00491094  RH  035%=      5-min Rain = 0
KSB1 201120Z 27003KT 05/M09 A303 RMK A01 T00521094  RH  034%=      5-min Rain = 0
KSB1 201121Z 26002KT 05/M09 A303 RMK A01 T00531094  RH  034%=      5-min Rain = 0
KSB1 201122Z 26003KT 05/M10 A303 RMK A01 T00531095  RH  034%=      5-min Rain = 0
KSB1 201123Z 26003KT 05/M10 A303 RMK A01 T00531095  RH  034%=      5-min Rain = 0
KSB1 201124Z 27003KT 05/M10 A303 RMK A01 T00521095  RH  034%=      5-min Rain = 0
KSB1 201125Z 27003KT 05/M09 A303 RMK A01 T00521094  RH  034%=      5-min Rain = 0
KSB1 201126Z 26003KT 05/M09 A303 RMK A01 T00511094  RH  034%=      5-min Rain = 0
KSB1 201127Z 26003KT 05/M09 A303 RMK A01 T00501094  RH  034%=      5-min Rain = 0
KSB1 201128Z 26002KT 05/M09 A303 RMK A01 T00501094  RH  035%=      5-min Rain = 0
KSB1 201129Z 26002KT 05/M09 A303 RMK A01 T00491094  RH  035%=      5-min Rain = 0
KSB1 201130Z 26002KT 05/M09 A303 RMK A01 T00481094  RH  035%=      5-min Rain = 0
KSB1 201131Z 26003KT 05/M10 A303 RMK A01 T00461095  RH  035%=      5-min Rain = 0
KSB1 201132Z 25003KT 04/M10 A303 RMK A01 T00431095  RH  036%=      5-min Rain = 0
KSB1 201133Z 24002KT 04/M09 A3029 RMK A01 T00421094  RH  036%=      5-min Rain = 0
KSB1 201134Z 24002KT 04/M09 A3029 RMK A01 T00421094  RH  036%=      5-min Rain = 0
KSB1 201135Z 25002KT 05/M09 A3029 RMK A01 T00451094  RH  036%=      5-min Rain = 0
KSB1 201136Z 24002KT 05/M09 A3029 RMK A01 T00451094  RH  036%=      5-min Rain = 0
KSB1 201137Z 23002KT 05/M09 A3029 RMK A01 T00461094  RH  035%=      5-min Rain = 0
KSB1 201138Z 23002KT 05/M09 A3029 RMK A01 T00461094  RH  035%=      5-min Rain = 0
KSB1 201139Z 23002KT 05/M09 A3029 RMK A01 T00461094  RH  035%=      5-min Rain = 0
KSB1 201140Z 23002KT 05/M09 A3029 RMK A01 T00461094  RH  035%=      5-min Rain = 0
KSB1 201141Z 24002KT 05/M09 A3029 RMK A01 T00471094  RH  035%=      5-min Rain = 0
KSB1 201142Z 25002KT 05/M09 A3029 RMK A01 T00471094  RH  035%=      5-min Rain = 0
KSB1 201143Z 26002KT 05/M09 A3029 RMK A01 T00481093  RH  035%=      5-min Rain = 0
KSB1 201144Z 26002KT 05/M09 A3029 RMK A01 T00491093  RH  035%=      5-min Rain = 0
KSB1 201145Z 26003KT 05/M09 A3029 RMK A01 T00491094  RH  035%=      5-min Rain = 0
KSB1 201146Z 26003KT 05/M09 A3029 RMK A01 T00481093  RH  035%=      5-min Rain = 0
KSB1 201147Z 26003KT 05/M09 A3029 RMK A01 T00481093  RH  035%=      5-min Rain = 0
KSB1 201148Z 26003KT 05/M09 A3029 RMK A01 T00471094  RH  035%=      5-min Rain = 0
KSB1 201149Z 26004KT 05/M09 A3029 RMK A01 T00461093  RH  036%=      5-min Rain = 0
KSB1 201150Z 25003KT 05/M09 A3029 RMK A01 T00461093  RH  036%=      5-min Rain = 0
KSB1 201151Z 24003KT 05/M09 A3029 RMK A01 T00461094  RH  035%=      5-min Rain = 0
KSB1 201152Z 25003KT 05/M09 A3029 RMK A01 T00471094  RH  035%=      5-min Rain = 0
KSB1 201153Z 25002KT 05/M09 A3029 RMK A01 T00481094  RH  035%=      5-min Rain = 0
KSB1 201154Z 06001KT 05/M10 A3029 RMK A01 T00451095  RH  035%=      5-min Rain = 0
KSB1 201155Z 09002KT 04/M10 A3029 RMK A01 T00421097  RH  036%=      5-min Rain = 0
KSB1 201156Z 09000KT 04/M10 A3029 RMK A01 T00401097  RH  036%=      5-min Rain = 0
KSB1 201157Z 00000KT 04/M10 A3029 RMK A01 T00401096  RH  037%=      5-min Rain = 0
KSB1 201158Z 00000KT 04/M10 A3029 RMK A01 T00411095  RH  036%=      5-min Rain = 0
KSB1 201159Z 00000KT 04/M10 A3029 RMK A01 T00411095  RH  036%=      5-min Rain = 0
KSB1 201200Z 00000KT 04/M10 A3029 RMK A01 T00401096  RH  036%=      5-min Rain = 0
KSB1 201201Z 31000KT 04/M10 A3029 RMK A01 T00391096  RH  037%=      5-min Rain = 0
KSB1 201202Z 00000KT 04/M10 A3029 RMK A01 T00381097  RH  037%=      5-min Rain = 0
KSB1 201203Z 00000KT 04/M10 A3029 RMK A01 T00371096  RH  037%=      5-min Rain = 0
KSB1 201204Z 00000KT 04/M10 A3029 RMK A01 T00371096  RH  037%=      5-min Rain = 0
KSB1 201205Z 00000KT 04/M10 A3029 RMK A01 T00381096  RH  037%=      5-min Rain = 0
KSB1 201206Z 00000KT 04/M10 A3029 RMK A01 T00381096  RH  037%=      5-min Rain = 0
KSB1 201207Z 00000KT 04/M10 A3029 RMK A01 T00381096  RH  037%=      5-min Rain = 0
KSB1 201208Z 00000KT 04/M10 A3029 RMK A01 T00381096  RH  037%=      5-min Rain = 0
KSB1 201209Z 00000KT 04/M10 A3029 RMK A01 T00381096  RH  037%=      5-min Rain = 0
KSB1 201210Z 00000KT 04/M10 A3029 RMK A01 T00381097  RH  037%=      5-min Rain = 0
KSB1 201211Z 25000KT 04/M10 A3029 RMK A01 T00371097  RH  037%=      5-min Rain = 0
KSB1 201212Z 25001KT 04/M10 A3029 RMK A01 T00371096  RH  037%=      5-min Rain = 0
KSB1 201213Z 25000KT 04/M10 A3029 RMK A01 T00371096  RH  037%=      5-min Rain = 0
KSB1 201214Z 00000KT 04/M10 A3029 RMK A01 T00371096  RH  037%=      5-min Rain = 0
KSB1 201215Z 00000KT 04/M10 A3029 RMK A01 T00381096  RH  037%=      5-min Rain = 0
KSB1 201216Z 00000KT 04/M10 A3029 RMK A01 T00381097  RH  037%=      5-min Rain = 0
KSB1 201217Z 06000KT 04/M10 A3029 RMK A01 T00381097  RH  037%=      5-min Rain = 0
KSB1 201218Z 05001KT 04/M10 A3029 RMK A01 T00361097  RH  037%=      5-min Rain = 0
KSB1 201219Z 05001KT 03/M10 A3029 RMK A01 T00341097  RH  038%=      5-min Rain = 0
KSB1 201220Z 05000KT 03/M10 A3029 RMK A01 T00341097  RH  038%=      5-min Rain = 0
KSB1 201221Z 00000KT 03/M10 A3029 RMK A01 T00341096  RH  038%=      5-min Rain = 0
KSB1 201222Z 00000KT 03/M10 A3029 RMK A01 T00331097  RH  038%=      5-min Rain = 0
KSB1 201223Z 00000KT 03/M10 A3029 RMK A01 T00331097  RH  038%=      5-min Rain = 0
KSB1 201224Z 03000KT 03/M10 A3029 RMK A01 T00331097  RH  038%=      5-min Rain = 0
KSB1 201225Z 03002KT 03/M10 A3029 RMK A01 T00331097  RH  038%=      5-min Rain = 0
KSB1 201226Z 02002KT 03/M10 A3029 RMK A01 T00331097  RH  038%=      5-min Rain = 0
KSB1 201227Z 01003KT 03/M10 A3029 RMK A01 T00331097  RH  038%=      5-min Rain = 0
KSB1 201228Z 01003KT 03/M10 A3029 RMK A01 T00331097  RH  038%=      5-min Rain = 0
KSB1 201229Z 35003KT 03/M10 A3029 RMK A01 T00331096  RH  038%=      5-min Rain = 0
KSB1 201230Z 35004KT 03/M10 A3029 RMK A01 T00331096  RH  038%=      5-min Rain = 0
KSB1 201231Z 34003KT 03/M10 A3029 RMK A01 T00321096  RH  038%=      5-min Rain = 0
KSB1 201232Z 33003KT 03/M10 A3029 RMK A01 T00321096  RH  038%=      5-min Rain = 0
KSB1 201233Z 31002KT 03/M10 A3029 RMK A01 T00321096  RH  038%=      5-min Rain = 0
KSB1 201234Z 30002KT 03/M10 A3029 RMK A01 T00321096  RH  038%=      5-min Rain = 0
KSB1 201235Z 29003KT 03/M10 A3029 RMK A01 T00321096  RH  038%=      5-min Rain = 0
KSB1 201236Z 29002KT 03/M10 A3029 RMK A01 T00341096  RH  038%=      5-min Rain = 0
KSB1 201237Z 29002KT 04/M10 A3029 RMK A01 T00371096  RH  037%=      5-min Rain = 0
KSB1 201238Z 30002KT 04/M10 A3029 RMK A01 T00401095  RH  037%=      5-min Rain = 0
KSB1 201239Z 29002KT 04/M10 A3029 RMK A01 T00421096  RH  036%=      5-min Rain = 0
KSB1 201240Z 30002KT 04/M10 A3029 RMK A01 T00421096  RH  036%=      5-min Rain = 0
KSB1 201241Z 30002KT 04/M10 A3029 RMK A01 T00421096  RH  036%=      5-min Rain = 0
KSB1 201242Z 30002KT 04/M10 A3029 RMK A01 T00421096  RH  036%=      5-min Rain = 0
KSB1 201243Z 32001KT 04/M10 A3029 RMK A01 T00431096  RH  035%=      5-min Rain = 0
KSB1 201244Z 34001KT 04/M10 A3029 RMK A01 T00431097  RH  035%=      5-min Rain = 0
KSB1 201245Z 00001KT 04/M10 A3029 RMK A01 T00421096  RH  036%=      5-min Rain = 0
KSB1 201246Z 01001KT 04/M10 A3029 RMK A01 T00421096  RH  036%=      5-min Rain = 0
KSB1 201247Z 36001KT 04/M10 A3029 RMK A01 T00431096  RH  036%=      5-min Rain = 0
KSB1 201248Z 36000KT 04/M10 A3029 RMK A01 T00431096  RH  036%=      5-min Rain = 0
KSB1 201249Z 33000KT 04/M10 A3029 RMK A01 T00431097  RH  036%=      5-min Rain = 0
KSB1 201250Z 00000KT 04/M10 A3029 RMK A01 T00431097  RH  035%=      5-min Rain = 0
KSB1 201251Z 00000KT 04/M10 A3029 RMK A01 T00441097  RH  035%=      5-min Rain = 0
KSB1 201252Z 33000KT 05/M10 A3029 RMK A01 T00451097  RH  035%=      5-min Rain = 0
KSB1 201253Z 00000KT 05/M10 A3029 RMK A01 T00471097  RH  034%=      5-min Rain = 0
KSB1 201254Z 00000KT 05/M10 A3029 RMK A01 T00501097  RH  034%=      5-min Rain = 0
KSB1 201255Z 00000KT 05/M10 A3029 RMK A01 T00511097  RH  033%=      5-min Rain = 0
KSB1 201256Z 00000KT 05/M10 A303 RMK A01 T00521097  RH  033%=      5-min Rain = 0
KSB1 201257Z 00000KT 05/M10 A303 RMK A01 T00531097  RH  033%=      5-min Rain = 0
KSB1 201258Z 33000KT 05/M10 A303 RMK A01 T00541097  RH  033%=      5-min Rain = 0
KSB1 201259Z 31000KT 05/M10 A303 RMK A01 T00531097  RH  033%=      5-min Rain = 0
KSB1 201300Z 00000KT 05/M10 A303 RMK A01 T00501097  RH  034%=      5-min Rain = 0
KSB1 201301Z 00000KT 05/M10 A303 RMK A01 T00491096  RH  034%=      5-min Rain = 0
KSB1 201302Z 00000KT 05/M10 A303 RMK A01 T00491097  RH  034%=      5-min Rain = 0
KSB1 201303Z 00000KT 05/M10 A303 RMK A01 T00491097  RH  034%=      5-min Rain = 0
KSB1 201304Z 02001KT 04/M10 A303 RMK A01 T00411098  RH  036%=      5-min Rain = 0
KSB1 201305Z 01001KT 03/M10 A303 RMK A01 T00331097  RH  038%=      5-min Rain = 0
KSB1 201306Z 01002KT 03/M10 A303 RMK A01 T00291096  RH  039%=      5-min Rain = 0
KSB1 201307Z 00001KT 03/M10 A303 RMK A01 T00271096  RH  040%=      5-min Rain = 0
KSB1 201308Z 00000KT 03/M10 A303 RMK A01 T00261096  RH  040%=      5-min Rain = 0
KSB1 201309Z 00000KT 03/M10 A303 RMK A01 T00301096  RH  039%=      5-min Rain = 0
KSB1 201310Z 00000KT 04/M10 A303 RMK A01 T00351095  RH  038%=      5-min Rain = 0
KSB1 201311Z 00000KT 04/M10 A303 RMK A01 T00381097  RH  037%=      5-min Rain = 0
KSB1 201312Z 06000KT 04/M10 A303 RMK A01 T00391096  RH  036%=      5-min Rain = 0
KSB1 201313Z 04004KT 03/M10 A303 RMK A01 T00341100  RH  037%=      5-min Rain = 0
KSB1 201314Z 03004KT 02/M10 A303 RMK A01 T00171104  RH  040%=      5-min Rain = 0
KSB1 201315Z 03004KT 01/M10 A303 RMK A01 T00051104  RH  044%=      5-min Rain = 0
KSB1 201316Z 03004KT M00/M10 A303 RMK A01 T10031103  RH  047%=      5-min Rain = 0
KSB1 201317Z 02003KT M01/M10 A303 RMK A01 T10051100  RH  049%=      5-min Rain = 0
KSB1 201318Z 01003KT M00/M10 A303 RMK A01 T10021095  RH  049%=      5-min Rain = 0
KSB1 201319Z 35002KT 00/M09 A303 RMK A01 T00041092  RH  048%=      5-min Rain = 0
KSB1 201320Z 32001KT 01/M09 A303 RMK A01 T00101092  RH  046%=      5-min Rain = 0
KSB1 201321Z 33001KT 02/M09 A303 RMK A01 T00151093  RH  045%=      5-min Rain = 0
KSB1 201322Z 34001KT 02/M09 A303 RMK A01 T00151094  RH  044%=      5-min Rain = 0
KSB1 201323Z 01002KT 01/M10 A303 RMK A01 T00131095  RH  044%=      5-min Rain = 0
KSB1 201324Z 03003KT 02/M09 A303 RMK A01 T00161094  RH  044%=      5-min Rain = 0
KSB1 201325Z 04003KT 02/M09 A303 RMK A01 T00191094  RH  043%=      5-min Rain = 0
KSB1 201326Z 04004KT 02/M09 A303 RMK A01 T00211094  RH  042%=      5-min Rain = 0
KSB1 201327Z 03004KT 02/M10 A303 RMK A01 T00211095  RH  042%=      5-min Rain = 0
KSB1 201328Z 03005KT 02/M10 A303 RMK A01 T00211095  RH  042%=      5-min Rain = 0
KSB1 201329Z 03004KT 02/M10 A303 RMK A01 T00211095  RH  042%=      5-min Rain = 0
KSB1 201330Z 02004KT 02/M10 A303 RMK A01 T00211095  RH  042%=      5-min Rain = 0
KSB1 201331Z 02003KT 02/M10 A303 RMK A01 T00211095  RH  042%=      5-min Rain = 0
KSB1 201332Z 01002KT 02/M10 A303 RMK A01 T00211095  RH  042%=      5-min Rain = 0
KSB1 201333Z 35001KT 02/M10 A303 RMK A01 T00211096  RH  042%=      5-min Rain = 0
KSB1 201334Z 29000KT 02/M10 A303 RMK A01 T00221096  RH  041%=      5-min Rain = 0
KSB1 201335Z 26001KT 03/M10 A303 RMK A01 T00251096  RH  041%=      5-min Rain = 0
KSB1 201336Z 00000KT 03/M10 A303 RMK A01 T00281096  RH  040%=      5-min Rain = 0
KSB1 201337Z 01000KT 03/M10 A303 RMK A01 T00291096  RH  039%=      5-min Rain = 0
KSB1 201338Z 02002KT 03/M10 A303 RMK A01 T00291096  RH  039%=      5-min Rain = 0
KSB1 201339Z 01004KT 03/M10 A303 RMK A01 T00281096  RH  039%=      5-min Rain = 0
KSB1 201340Z 01004KT 03/M10 A303 RMK A01 T00291096  RH  039%=      5-min Rain = 0
KSB1 201341Z 36003KT 03/M10 A303 RMK A01 T00301096  RH  039%=      5-min Rain = 0
KSB1 201342Z 36003KT 03/M10 A303 RMK A01 T00301096  RH  039%=      5-min Rain = 0
KSB1 201343Z 36003KT 03/M10 A303 RMK A01 T00291095  RH  039%=      5-min Rain = 0
KSB1 201344Z 00003KT 03/M10 A303 RMK A01 T00291095  RH  040%=      5-min Rain = 0
KSB1 201345Z 35002KT 03/M09 A303 RMK A01 T00281094  RH  040%=      5-min Rain = 0
KSB1 201346Z 34001KT 03/M09 A303 RMK A01 T00281094  RH  040%=      5-min Rain = 0
KSB1 201347Z 27000KT 03/M09 A303 RMK A01 T00291094  RH  040%=      5-min Rain = 0
KSB1 201348Z 25000KT 03/M09 A303 RMK A01 T00311094  RH  039%=      5-min Rain = 0
KSB1 201349Z 24001KT 03/M10 A303 RMK A01 T00321095  RH  039%=      5-min Rain = 0
KSB1 201350Z 24001KT 03/M10 A303 RMK A01 T00331095  RH  038%=      5-min Rain = 0
KSB1 201351Z 24001KT 03/M10 A303 RMK A01 T00341095  RH  038%=      5-min Rain = 0
KSB1 201352Z 25001KT 04/M10 A303 RMK A01 T00351096  RH  038%=      5-min Rain = 0
KSB1 201353Z 25000KT 04/M10 A3031 RMK A01 T00351096  RH  038%=      5-min Rain = 0
KSB1 201354Z 25000KT 04/M10 A3031 RMK A01 T00351096  RH  038%=      5-min Rain = 0
KSB1 201355Z 00000KT 04/M10 A3031 RMK A01 T00351096  RH  038%=      5-min Rain = 0
KSB1 201356Z 00000KT 04/M10 A3031 RMK A01 T00351095  RH  038%=      5-min Rain = 0
KSB1 201357Z 27000KT 04/M10 A303 RMK A01 T00361096  RH  038%=      5-min Rain = 0
KSB1 201358Z 26001KT 04/M10 A303 RMK A01 T00361096  RH  038%=      5-min Rain = 0
KSB1 201359Z 24002KT 04/M10 A303 RMK A01 T00361096  RH  037%=      5-min Rain = 0
KSB1 201400Z 24003KT 04/M10 A303 RMK A01 T00361096  RH  038%=      5-min Rain = 0
KSB1 201401Z 24003KT 03/M10 A303 RMK A01 T00341096  RH  038%=      5-min Rain = 0
KSB1 201402Z 24004KT 03/M10 A3031 RMK A01 T00321096  RH  039%=      5-min Rain = 0
KSB1 201403Z 23004KT 03/M10 A303 RMK A01 T00301096  RH  039%=      5-min Rain = 0
KSB1 201404Z 23004KT 03/M10 A303 RMK A01 T00291095  RH  040%=      5-min Rain = 0
KSB1 201405Z 23004KT 03/M09 A303 RMK A01 T00301094  RH  040%=      5-min Rain = 0
KSB1 201406Z 23004KT 03/M09 A303 RMK A01 T00301094  RH  040%=      5-min Rain = 0
KSB1 201407Z 23005KT 03/M09 A303 RMK A01 T00301093  RH  040%=      5-min Rain = 0
KSB1 201408Z 23005KT 03/M09 A303 RMK A01 T00301092  RH  040%=      5-min Rain = 0
KSB1 201409Z 24004KT 03/M09 A303 RMK A01 T00301092  RH  040%=      5-min Rain = 0
KSB1 201410Z 24003KT 03/M09 A303 RMK A01 T00311092  RH  040%=      5-min Rain = 0
KSB1 201411Z 24002KT 03/M09 A3031 RMK A01 T00321092  RH  040%=      5-min Rain = 0
KSB1 201412Z 23003KT 03/M09 A3031 RMK A01 T00321091  RH  040%=      5-min Rain = 0
KSB1 201413Z 24003KT 03/M09 A3031 RMK A01 T00321091  RH  040%=      5-min Rain = 0
KSB1 201414Z 24004KT 03/M09 A3031 RMK A01 T00331090  RH  040%=      5-min Rain = 0
KSB1 201415Z 24004KT 03/M09 A3031 RMK A01 T00331090  RH  040%=      5-min Rain = 0
KSB1 201416Z 24005KT 03/M09 A3031 RMK A01 T00341089  RH  040%=      5-min Rain = 0
KSB1 201417Z 24006KT 03/M09 A3031 RMK A01 T00331088  RH  041%=      5-min Rain = 0
KSB1 201418Z 24006KT 03/M09 A3031 RMK A01 T00331088  RH  041%=      5-min Rain = 0
KSB1 201419Z 24007KT 03/M09 A3031 RMK A01 T00331087  RH  041%=      5-min Rain = 0
KSB1 201420Z 23007KT 03/M09 A3031 RMK A01 T00331086  RH  041%=      5-min Rain = 0
KSB1 201421Z 23007KT 03/M09 A3031 RMK A01 T00341085  RH  041%=      5-min Rain = 0
KSB1 201422Z 23008KT 04/M08 A3031 RMK A01 T00351084  RH  041%=      5-min Rain = 0
KSB1 201423Z 23007KT 04/M09 A3031 RMK A01 T00361085  RH  041%=      5-min Rain = 0
KSB1 201424Z 24007KT 04/M08 A3031 RMK A01 T00361084  RH  041%=      5-min Rain = 0
KSB1 201425Z 22007KT 04/M08 A3031 RMK A01 T00371084  RH  041%=      5-min Rain = 0
KSB1 201426Z 23007KT 04/M08 A3031 RMK A01 T00401082  RH  041%=      5-min Rain = 0
KSB1 201427Z 23006KT 04/M08 A3031 RMK A01 T00411082  RH  040%=      5-min Rain = 0
KSB1 201428Z 23006KT 04/M08 A3031 RMK A01 T00421082  RH  040%=      5-min Rain = 0
KSB1 201429Z 24006KT 04/M08 A3031 RMK A01 T00421083  RH  040%=      5-min Rain = 0
KSB1 201430Z 24005KT 04/M08 A3031 RMK A01 T00421082  RH  040%=      5-min Rain = 0
KSB1 201431Z 24005KT 04/M08 A3031 RMK A01 T00421082  RH  040%=      5-min Rain = 0
KSB1 201432Z 24003KT 04/M08 A3031 RMK A01 T00421082  RH  040%=      5-min Rain = 0
KSB1 201433Z 24004KT 04/M08 A3031 RMK A01 T00421082  RH  040%=      5-min Rain = 0
KSB1 201434Z 24005KT 04/M08 A3031 RMK A01 T00421082  RH  040%=      5-min Rain = 0
KSB1 201435Z 24004KT 04/M08 A3031 RMK A01 T00421081  RH  040%=      5-min Rain = 0
KSB1 201436Z 24005KT 04/M08 A3031 RMK A01 T00421081  RH  040%=      5-min Rain = 0
KSB1 201437Z 24005KT 04/M08 A3031 RMK A01 T00421081  RH  040%=      5-min Rain = 0
KSB1 201438Z 25006KT 04/M08 A3031 RMK A01 T00421080  RH  041%=      5-min Rain = 0
KSB1 201439Z 25006KT 04/M08 A3031 RMK A01 T00421080  RH  041%=      5-min Rain = 0
KSB1 201440Z 25006KT 04/M08 A3031 RMK A01 T00421080  RH  041%=      5-min Rain = 0
KSB1 201441Z 25006KT 04/M08 A3031 RMK A01 T00421079  RH  041%=      5-min Rain = 0
KSB1 201442Z 25006KT 04/M08 A3032 RMK A01 T00421079  RH  041%=      5-min Rain = 0
KSB1 201443Z 26006KT 04/M08 A3032 RMK A01 T00431079  RH  041%=      5-min Rain = 0
KSB1 201444Z 26006KT 04/M08 A3032 RMK A01 T00431079  RH  041%=      5-min Rain = 0
KSB1 201445Z 26006KT 04/M08 A3032 RMK A01 T00441079  RH  040%=      5-min Rain = 0
KSB1 201446Z 26006KT 04/M08 A3032 RMK A01 T00441079  RH  040%=      5-min Rain = 0
KSB1 201447Z 25006KT 04/M08 A3032 RMK A01 T00441079  RH  040%=      5-min Rain = 0
KSB1 201448Z 25007KT 04/M08 A3032 RMK A01 T00441079  RH  040%=      5-min Rain = 0
KSB1 201449Z 24007KT 04/M08 A3032 RMK A01 T00441079  RH  040%=      5-min Rain = 0
KSB1 201450Z 24007KT 05/M08 A3032 RMK A01 T00451078  RH  040%=      5-min Rain = 0
KSB1 201451Z 24007KT 05/M08 A3031 RMK A01 T00451078  RH  040%=      5-min Rain = 0
KSB1 201452Z 23008KT 05/M08 A3031 RMK A01 T00461078  RH  040%=      5-min Rain = 0
KSB1 201453Z 23008KT 05/M08 A3032 RMK A01 T00461078  RH  040%=      5-min Rain = 0
KSB1 201454Z 24007KT 05/M08 A3032 RMK A01 T00471078  RH  040%=      5-min Rain = 0
KSB1 201455Z 24007KT 05/M08 A3032 RMK A01 T00471078  RH  040%=      5-min Rain = 0
KSB1 201456Z 24007KT 05/M08 A3032 RMK A01 T00481078  RH  040%=      5-min Rain = 0
KSB1 201457Z 25007KT 05/M08 A3032 RMK A01 T00491078  RH  039%=      5-min Rain = 0
KSB1 201458Z 25007KT 05/M08 A3032 RMK A01 T00501078  RH  039%=      5-min Rain = 0
KSB1 201459Z 25007KT 05/M08 A3032 RMK A01 T00511078  RH  039%=      5-min Rain = 0
KSB1 201500Z 25007KT 05/M08 A3032 RMK A01 T00511078  RH  039%=      5-min Rain = 0
KSB1 201501Z 26005KT 05/M08 A3032 RMK A01 T00511079  RH  038%=      5-min Rain = 0
KSB1 201502Z 26005KT 05/M08 A3032 RMK A01 T00521078  RH  038%=      5-min Rain = 0
KSB1 201503Z 26005KT 05/M08 A3032 RMK A01 T00521078  RH  039%=      5-min Rain = 0
KSB1 201504Z 25005KT 05/M08 A3032 RMK A01 T00531077  RH  039%=      5-min Rain = 0
KSB1 201505Z 25006KT 05/M08 A3032 RMK A01 T00531077  RH  039%=      5-min Rain = 0
KSB1 201506Z 24006KT 05/M08 A3032 RMK A01 T00531077  RH  039%=      5-min Rain = 0
KSB1 201507Z 24005KT 05/M08 A3032 RMK A01 T00531077  RH  038%=      5-min Rain = 0
KSB1 201508Z 23005KT 05/M08 A3032 RMK A01 T00541077  RH  038%=      5-min Rain = 0
KSB1 201509Z 23005KT 05/M08 A3032 RMK A01 T00541077  RH  038%=      5-min Rain = 0
KSB1 201510Z 22005KT 06/M08 A3032 RMK A01 T00551077  RH  038%=      5-min Rain = 0
KSB1 201511Z 23004KT 06/M08 A3032 RMK A01 T00551077  RH  038%=      5-min Rain = 0
KSB1 201512Z 23004KT 06/M08 A3032 RMK A01 T00561077  RH  038%=      5-min Rain = 0
KSB1 201513Z 24005KT 06/M08 A3032 RMK A01 T00561078  RH  037%=      5-min Rain = 0
KSB1 201514Z 23006KT 06/M08 A3032 RMK A01 T00571079  RH  037%=      5-min Rain = 0
KSB1 201515Z 24006KT 06/M08 A3032 RMK A01 T00571079  RH  037%=      5-min Rain = 0
KSB1 201516Z 24006KT 06/M08 A3032 RMK A01 T00571079  RH  037%=      5-min Rain = 0
KSB1 201517Z 24006KT 06/M08 A3032 RMK A01 T00581078  RH  037%=      5-min Rain = 0
KSB1 201518Z 23006KT 06/M08 A3032 RMK A01 T00591078  RH  037%=      5-min Rain = 0
KSB1 201519Z 24006KT 06/M08 A3032 RMK A01 T00591078  RH  037%=      5-min Rain = 0
KSB1 201520Z 24006KT 06/M08 A3032 RMK A01 T00591078  RH  037%=      5-min Rain = 0
KSB1 201521Z 24005KT 06/M08 A3032 RMK A01 T00591079  RH  036%=      5-min Rain = 0
KSB1 201522Z 24005KT 06/M08 A3032 RMK A01 T00601078  RH  036%=      5-min Rain = 0
KSB1 201523Z 23005KT 06/M08 A3032 RMK A01 T00611078  RH  036%=      5-min Rain = 0
KSB1 201524Z 24005KT 06/M08 A3032 RMK A01 T00611079  RH  036%=      5-min Rain = 0
KSB1 201525Z 23005KT 06/M08 A3032 RMK A01 T00611080  RH  036%=      5-min Rain = 0
KSB1 201526Z 23006KT 06/M08 A3032 RMK A01 T00611079  RH  036%=      5-min Rain = 0
KSB1 201527Z 23005KT 06/M08 A3032 RMK A01 T00611080  RH  035%=      5-min Rain = 0
KSB1 201528Z 23005KT 06/M08 A3032 RMK A01 T00611080  RH  035%=      5-min Rain = 0
KSB1 201529Z 23005KT 06/M08 A3032 RMK A01 T00621080  RH  035%=      5-min Rain = 0
KSB1 201530Z 23004KT 06/M08 A3032 RMK A01 T00631080  RH  035%=      5-min Rain = 0
KSB1 201531Z 23005KT 06/M08 A3032 RMK A01 T00631080  RH  035%=      5-min Rain = 0
KSB1 201532Z 24005KT 06/M08 A3032 RMK A01 T00641080  RH  035%=      5-min Rain = 0
KSB1 201533Z 24005KT 06/M08 A3032 RMK A01 T00641079  RH  035%=      5-min Rain = 0
KSB1 201534Z 24005KT 06/M08 A3032 RMK A01 T00641080  RH  035%=      5-min Rain = 0
KSB1 201535Z 24004KT 06/M08 A3032 RMK A01 T00641080  RH  035%=      5-min Rain = 0
KSB1 201536Z 23004KT 06/M08 A3032 RMK A01 T00641079  RH  035%=      5-min Rain = 0
KSB1 201537Z 22004KT 07/M08 A3032 RMK A01 T00651079  RH  035%=      5-min Rain = 0
KSB1 201538Z 23004KT 07/M08 A3032 RMK A01 T00661078  RH  035%=      5-min Rain = 0
KSB1 201539Z 22004KT 07/M08 A3032 RMK A01 T00671078  RH  035%=      5-min Rain = 0
KSB1 201540Z 23005KT 07/M08 A3032 RMK A01 T00671079  RH  034%=      5-min Rain = 0
KSB1 201541Z 22006KT 07/M08 A3032 RMK A01 T00681079  RH  034%=      5-min Rain = 0
KSB1 201542Z 22006KT 07/M08 A3032 RMK A01 T00681081  RH  034%=      5-min Rain = 0
KSB1 201543Z 22006KT 07/M08 A3032 RMK A01 T00681081  RH  034%=      5-min Rain = 0
KSB1 201544Z 22006KT 07/M08 A3032 RMK A01 T00681081  RH  034%=      5-min Rain = 0
KSB1 201545Z 22006KT 07/M08 A3032 RMK A01 T00681080  RH  034%=      5-min Rain = 0
KSB1 201546Z 21005KT 07/M08 A3032 RMK A01 T00701080  RH  034%=      5-min Rain = 0
KSB1 201547Z 22005KT 07/M08 A3032 RMK A01 T00711080  RH  033%=      5-min Rain = 0
KSB1 201548Z 21004KT 07/M08 A3032 RMK A01 T00731079  RH  033%=      5-min Rain = 0
KSB1 201549Z 21005KT 08/M08 A3032 RMK A01 T00751078  RH  033%=      5-min Rain = 0
KSB1 201550Z 21005KT 08/M08 A3032 RMK A01 T00761080  RH  032%=      5-min Rain = 0
KSB1 201551Z 22006KT 08/M08 A3032 RMK A01 T00771080  RH  032%=      5-min Rain = 0
KSB1 201552Z 21006KT 08/M08 A3032 RMK A01 T00761083  RH  031%=      5-min Rain = 0
KSB1 201553Z 22006KT 08/M08 A3032 RMK A01 T00761083  RH  031%=      5-min Rain = 0
KSB1 201554Z 22005KT 08/M08 A3032 RMK A01 T00761082  RH  032%=      5-min Rain = 0
KSB1 201555Z 22006KT 08/M08 A3032 RMK A01 T00771082  RH  031%=      5-min Rain = 0
KSB1 201556Z 21006KT 08/M08 A3032 RMK A01 T00771082  RH  031%=      5-min Rain = 0
KSB1 201557Z 20005KT 08/M08 A3032 RMK A01 T00771084  RH  031%=      5-min Rain = 0
KSB1 201558Z 21005KT 08/M08 A3032 RMK A01 T00761084  RH  031%=      5-min Rain = 0
KSB1 201559Z 22006KT 08/M08 A3032 RMK A01 T00771083  RH  031%=      5-min Rain = 0
KSB1 201600Z 22006KT 08/M08 A3032 RMK A01 T00781083  RH  031%=      5-min Rain = 0
KSB1 201601Z 22007KT 08/M08 A3032 RMK A01 T00791083  RH  031%=      5-min Rain = 0
KSB1 201602Z 22007KT 08/M08 A3032 RMK A01 T00791084  RH  031%=      5-min Rain = 0
KSB1 201603Z 21007KT 08/M08 A3032 RMK A01 T00791084  RH  031%=      5-min Rain = 0
KSB1 201604Z 21007KT 08/M08 A3032 RMK A01 T00791083  RH  031%=      5-min Rain = 0
KSB1 201605Z 22007KT 08/M08 A3032 RMK A01 T00791083  RH  031%=      5-min Rain = 0
KSB1 201606Z 22007KT 08/M08 A3032 RMK A01 T00791082  RH  031%=      5-min Rain = 0
KSB1 201607Z 21006KT 08/M08 A3032 RMK A01 T00791082  RH  031%=      5-min Rain = 0
KSB1 201608Z 21005KT 08/M08 A3032 RMK A01 T00791081  RH  031%=      5-min Rain = 0
KSB1 201609Z 21006KT 08/M08 A3032 RMK A01 T00791081  RH  031%=      5-min Rain = 0
KSB1 201610Z 21006KT 08/M08 A3032 RMK A01 T00791081  RH  031%=      5-min Rain = 0
KSB1 201611Z 21006KT 08/M08 A3032 RMK A01 T00791080  RH  031%=      5-min Rain = 0
KSB1 201612Z 21006KT 08/M08 A3032 RMK A01 T00791081  RH  031%=      5-min Rain = 0
KSB1 201613Z 22005KT 08/M08 A3032 RMK A01 T00811080  RH  031%=      5-min Rain = 0
KSB1 201614Z 21005KT 08/M08 A3032 RMK A01 T00821081  RH  031%=      5-min Rain = 0
KSB1 201615Z 21004KT 08/M08 A3032 RMK A01 T00821080  RH  031%=      5-min Rain = 0
KSB1 201616Z 22004KT 08/M08 A3032 RMK A01 T00821079  RH  031%=      5-min Rain = 0
KSB1 201617Z 20004KT 08/M08 A3032 RMK A01 T00841079  RH  031%=      5-min Rain = 0
KSB1 201618Z 20004KT 08/M08 A3032 RMK A01 T00841081  RH  030%=      5-min Rain = 0
KSB1 201619Z 21002KT 09/M08 A3032 RMK A01 T00851079  RH  030%=      5-min Rain = 0
KSB1 201620Z 19002KT 09/M08 A3032 RMK A01 T00871082  RH  029%=      5-min Rain = 0
KSB1 201621Z 21003KT 09/M08 A3032 RMK A01 T00881082  RH  029%=      5-min Rain = 0
KSB1 201622Z 21003KT 09/M08 A3032 RMK A01 T00881082  RH  029%=      5-min Rain = 0
KSB1 201623Z 21003KT 09/M08 A3032 RMK A01 T00881081  RH  029%=      5-min Rain = 0
KSB1 201624Z 21004KT 09/M08 A3032 RMK A01 T00881082  RH  029%=      5-min Rain = 0
KSB1 201625Z 21005KT 09/M08 A3032 RMK A01 T00881083  RH  029%=      5-min Rain = 0
KSB1 201626Z 22005KT 09/M08 A3032 RMK A01 T00871083  RH  029%=      5-min Rain = 0
KSB1 201627Z 21004KT 09/M08 A3032 RMK A01 T00871083  RH  029%=      5-min Rain = 0
KSB1 201628Z 20004KT 09/M08 A3032 RMK A01 T00871083  RH  029%=      5-min Rain = 0
KSB1 201629Z 20003KT 09/M08 A3032 RMK A01 T00881083  RH  029%=      5-min Rain = 0
KSB1 201630Z 18004KT 09/M08 A3032 RMK A01 T00901082  RH  029%=      5-min Rain = 0
KSB1 201631Z 18004KT 09/M09 A3032 RMK A01 T00901085  RH  028%=      5-min Rain = 0
KSB1 201632Z 18004KT 09/M09 A3032 RMK A01 T00901086  RH  028%=      5-min Rain = 0
KSB1 201633Z 18004KT 09/M08 A3032 RMK A01 T00921084  RH  028%=      5-min Rain = 0
KSB1 201634Z 18004KT 09/M08 A3032 RMK A01 T00931084  RH  028%=      5-min Rain = 0
KSB1 201635Z 18003KT 09/M08 A3032 RMK A01 T00941084  RH  028%=      5-min Rain = 0
KSB1 201636Z 17002KT 10/M08 A3032 RMK A01 T00951084  RH  027%=      5-min Rain = 0
KSB1 201637Z 17003KT 10/M08 A3032 RMK A01 T00971083  RH  027%=      5-min Rain = 0
KSB1 201638Z 18003KT 10/M08 A3032 RMK A01 T00991083  RH  027%=      5-min Rain = 0
KSB1 201639Z 20003KT 10/M08 A3031 RMK A01 T01011083  RH  027%=      5-min Rain = 0
KSB1 201640Z 21003KT 10/M09 A3031 RMK A01 T01001088  RH  026%=      5-min Rain = 0
KSB1 201641Z 22004KT 10/M09 A3031 RMK A01 T01001088  RH  026%=      5-min Rain = 0
KSB1 201642Z 21005KT 10/M09 A3031 RMK A01 T01001090  RH  025%=      5-min Rain = 0
KSB1 201643Z 21005KT 10/M09 A3031 RMK A01 T01011091  RH  025%=      5-min Rain = 0
KSB1 201644Z 22005KT 10/M09 A3031 RMK A01 T01011091  RH  025%=      5-min Rain = 0
KSB1 201645Z 22004KT 10/M09 A3031 RMK A01 T01011089  RH  025%=      5-min Rain = 0
KSB1 201646Z 22004KT 10/M09 A3031 RMK A01 T01011088  RH  025%=      5-min Rain = 0
KSB1 201647Z 22004KT 10/M09 A3031 RMK A01 T01011087  RH  026%=      5-min Rain = 0
KSB1 201648Z 20003KT 10/M09 A3031 RMK A01 T01021086  RH  026%=      5-min Rain = 0
KSB1 201649Z 20004KT 10/M09 A3031 RMK A01 T01031087  RH  025%=      5-min Rain = 0
KSB1 201650Z 22004KT 11/M09 A3031 RMK A01 T01051087  RH  025%=      5-min Rain = 0
KSB1 201651Z 21004KT 11/M09 A3031 RMK A01 T01051087  RH  025%=      5-min Rain = 0
KSB1 201652Z 21005KT 11/M09 A3031 RMK A01 T01061087  RH  025%=      5-min Rain = 0
KSB1 201653Z 20004KT 11/M09 A3031 RMK A01 T01081086  RH  025%=      5-min Rain = 0
KSB1 201654Z 18004KT 11/M09 A3031 RMK A01 T01091087  RH  024%=      5-min Rain = 0
KSB1 201655Z 18005KT 11/M09 A3031 RMK A01 T01121087  RH  024%=      5-min Rain = 0
KSB1 201656Z 20005KT 11/M09 A3031 RMK A01 T01111089  RH  024%=      5-min Rain = 0
KSB1 201657Z 20004KT 11/M09 A3031 RMK A01 T01101088  RH  024%=      5-min Rain = 0
KSB1 201658Z 20005KT 11/M09 A3031 RMK A01 T01101089  RH  024%=      5-min Rain = 0
KSB1 201659Z 20005KT 11/M09 A3031 RMK A01 T01111090  RH  023%=      5-min Rain = 0
KSB1 201700Z 18006KT 11/M09 A3031 RMK A01 T01101091  RH  023%=      5-min Rain = 0
KSB1 201701Z 19006KT 11/M09 A3031 RMK A01 T01121090  RH  023%=      5-min Rain = 0
KSB1 201702Z 20005KT 11/M09 A3031 RMK A01 T01121091  RH  023%=      5-min Rain = 0
KSB1 201703Z 21004KT 11/M09 A3031 RMK A01 T01121092  RH  023%=      5-min Rain = 0
KSB1 201704Z 20006KT 11/M09 A3031 RMK A01 T01121090  RH  023%=      5-min Rain = 0
KSB1 201705Z 18005KT 11/M09 A3031 RMK A01 T01121090  RH  023%=      5-min Rain = 0
KSB1 201706Z 18005KT 11/M09 A3031 RMK A01 T01121089  RH  023%=      5-min Rain = 0
KSB1 201707Z 19006KT 11/M09 A3031 RMK A01 T01131089  RH  023%=      5-min Rain = 0
KSB1 201708Z 19005KT 11/M09 A3031 RMK A01 T01131091  RH  023%=      5-min Rain = 0
KSB1 201709Z 18005KT 11/M09 A3031 RMK A01 T01121090  RH  023%=      5-min Rain = 0
KSB1 201710Z 19005KT 11/M09 A3031 RMK A01 T01121090  RH  023%=      5-min Rain = 0
KSB1 201711Z 19005KT 11/M09 A3031 RMK A01 T01131089  RH  023%=      5-min Rain = 0
KSB1 201712Z 17004KT 11/M09 A3031 RMK A01 T01131088  RH  023%=      5-min Rain = 0
KSB1 201713Z 17005KT 11/M09 A3031 RMK A01 T01131089  RH  023%=      5-min Rain = 0
KSB1 201714Z 18006KT 11/M09 A3031 RMK A01 T01131088  RH  023%=      5-min Rain = 0
KSB1 201715Z 19006KT 12/M09 A3031 RMK A01 T01151087  RH  023%=      5-min Rain = 0
KSB1 201716Z 17006KT 12/M09 A3031 RMK A01 T01171086  RH  023%=      5-min Rain = 0
KSB1 201717Z 19006KT 12/M09 A3031 RMK A01 T01171087  RH  023%=      5-min Rain = 0
KSB1 201718Z 20005KT 12/M09 A3031 RMK A01 T01151088  RH  023%=      5-min Rain = 0
KSB1 201719Z 19004KT 11/M09 A3031 RMK A01 T01141087  RH  024%=      5-min Rain = 0
KSB1 201720Z 19005KT 11/M08 A3031 RMK A01 T01141084  RH  024%=      5-min Rain = 0
KSB1 201721Z 22005KT 11/M09 A3031 RMK A01 T01141086  RH  024%=      5-min Rain = 0
KSB1 201722Z 21003KT 11/M09 A3031 RMK A01 T01141088  RH  023%=      5-min Rain = 0
KSB1 201723Z 19003KT 11/M09 A3031 RMK A01 T01121090  RH  023%=      5-min Rain = 0
KSB1 201724Z 17006KT 11/M09 A3031 RMK A01 T01121086  RH  024%=      5-min Rain = 0
KSB1 201725Z 20005KT 11/M08 A3031 RMK A01 T01131083  RH  025%=      5-min Rain = 0
KSB1 201726Z 21006KT 11/M08 A3031 RMK A01 T01131081  RH  025%=      5-min Rain = 0
KSB1 201727Z 20005KT 11/M08 A3031 RMK A01 T01131081  RH  025%=      5-min Rain = 0
KSB1 201728Z 21006KT 11/M08 A3031 RMK A01 T01131082  RH  025%=      5-min Rain = 0
KSB1 201729Z 20004KT 11/M08 A3031 RMK A01 T01121083  RH  025%=      5-min Rain = 0
KSB1 201730Z 19004KT 11/M08 A3031 RMK A01 T01131084  RH  024%=      5-min Rain = 0
KSB1 201731Z 18004KT 12/M08 A3031 RMK A01 T01151081  RH  024%=      5-min Rain = 0
KSB1 201732Z 20005KT 12/M08 A3031 RMK A01 T01161080  RH  024%=      5-min Rain = 0
KSB1 201733Z 21005KT 12/M08 A3031 RMK A01 T01171081  RH  024%=      5-min Rain = 0
KSB1 201734Z 21006KT 12/M08 A3031 RMK A01 T01191080  RH  024%=      5-min Rain = 0
KSB1 201735Z 21006KT 12/M08 A3031 RMK A01 T01201078  RH  024%=      5-min Rain = 0
KSB1 201736Z 21007KT 12/M08 A3031 RMK A01 T01211080  RH  024%=      5-min Rain = 0
KSB1 201737Z 21007KT 12/M08 A3031 RMK A01 T01191083  RH  024%=      5-min Rain = 0
KSB1 201738Z 22007KT 12/M08 A3031 RMK A01 T01181083  RH  024%=      5-min Rain = 0
KSB1 201739Z 23006KT 12/M08 A3031 RMK A01 T01171081  RH  024%=      5-min Rain = 0
KSB1 201740Z 22006KT 12/M08 A3031 RMK A01 T01171079  RH  025%=      5-min Rain = 0
KSB1 201741Z 21007KT 12/M08 A3031 RMK A01 T01191081  RH  024%=      5-min Rain = 0
KSB1 201742Z 21008KT 12/M08 A3031 RMK A01 T01191083  RH  023%=      5-min Rain = 0
KSB1 201743Z 21008KT 12/M08 A3031 RMK A01 T01201082  RH  024%=      5-min Rain = 0
KSB1 201744Z 21008KT 12/M08 A3031 RMK A01 T01201082  RH  024%=      5-min Rain = 0
KSB1 201745Z 20007KT 12/M08 A3031 RMK A01 T01191082  RH  024%=      5-min Rain = 0
KSB1 201746Z 20007KT 12/M08 A3031 RMK A01 T01201079  RH  024%=      5-min Rain = 0
KSB1 201747Z 21007KT 12/M08 A3031 RMK A01 T01231079  RH  024%=      5-min Rain = 0
KSB1 201748Z 21007KT 12/M08 A303 RMK A01 T01241079  RH  023%=      5-min Rain = 0
KSB1 201749Z 20007KT 12/M08 A303 RMK A01 T01241080  RH  023%=      5-min Rain = 0
KSB1 201750Z 23007KT 12/M08 A303 RMK A01 T01241081  RH  023%=      5-min Rain = 0
KSB1 201751Z 23008KT 12/M08 A303 RMK A01 T01231081  RH  023%=      5-min Rain = 0
KSB1 201752Z 21009KT 12/M08 A303 RMK A01 T01241080  RH  023%=      5-min Rain = 0
KSB1 201753Z 21008KT 12/M08 A303 RMK A01 T01231082  RH  023%=      5-min Rain = 0
KSB1 201754Z 20008KT 12/M08 A3031 RMK A01 T01221082  RH  023%=      5-min Rain = 0
KSB1 201755Z 21008KT 12/M08 A3031 RMK A01 T01221080  RH  023%=      5-min Rain = 0
KSB1 201756Z 22008KT 12/M08 A3031 RMK A01 T01231080  RH  023%=      5-min Rain = 0
KSB1 201757Z 21007KT 12/M08 A3031 RMK A01 T01221079  RH  024%=      5-min Rain = 0
KSB1 201758Z 20008KT 13/M08 A3031 RMK A01 T01261075  RH  024%=      5-min Rain = 0
KSB1 201759Z 21007KT 13/M08 A3031 RMK A01 T01271079  RH  023%=      5-min Rain = 0
KSB1 201800Z 21009KT 13/M08 A3031 RMK A01 T01281077  RH  023%=      5-min Rain = 0
KSB1 201801Z 20008KT 13/M08 A3031 RMK A01 T01281078  RH  023%=      5-min Rain = 0
KSB1 201802Z 21009KT 13/M08 A303 RMK A01 T01261080  RH  023%=      5-min Rain = 0
KSB1 201803Z 21007KT 12/M08 A303 RMK A01 T01241081  RH  023%=      5-min Rain = 0
KSB1 201804Z 21007KT 13/M08 A303 RMK A01 T01251079  RH  023%=      5-min Rain = 0
KSB1 201805Z 21007KT 13/M08 A303 RMK A01 T01281077  RH  023%=      5-min Rain = 0
KSB1 201806Z 23008KT 13/M08 A303 RMK A01 T01301078  RH  023%=      5-min Rain = 0
KSB1 201807Z 23009KT 13/M08 A303 RMK A01 T01321080  RH  022%=      5-min Rain = 0
KSB1 201808Z 22009KT 13/M08 A303 RMK A01 T01311082  RH  022%=      5-min Rain = 0
KSB1 201809Z 22009KT 13/M08 A303 RMK A01 T01291083  RH  022%=      5-min Rain = 0
KSB1 201810Z 23008KT 13/M09 A303 RMK A01 T01281085  RH  022%=      5-min Rain = 0
KSB1 201811Z 24008KT 13/M09 A303 RMK A01 T01281085  RH  022%=      5-min Rain = 0
KSB1 201812Z 23008KT 13/M09 A303 RMK A01 T01281085  RH  022%=      5-min Rain = 0
KSB1 201813Z 23008KT 13/M09 A303 RMK A01 T01281085  RH  022%=      5-min Rain = 0
KSB1 201814Z 22008KT 13/M08 A303 RMK A01 T01291084  RH  022%=      5-min Rain = 0
KSB1 201815Z 22008KT 13/M08 A303 RMK A01 T01291084  RH  022%=      5-min Rain = 0
KSB1 201816Z 22006KT 13/M08 A303 RMK A01 T01331079  RH  022%=      5-min Rain = 0
KSB1 201817Z 23004KT 14/M08 A303 RMK A01 T01351083  RH  021%=      5-min Rain = 0
KSB1 201818Z 22006KT 13/M08 A303 RMK A01 T01341083  RH  021%=      5-min Rain = 0
KSB1 201819Z 23007KT 14/M08 A303 RMK A01 T01351082  RH  021%=      5-min Rain = 0
KSB1 201820Z 21006KT 14/M08 A303 RMK A01 T01361080  RH  022%=      5-min Rain = 0
KSB1 201821Z 21007KT 14/M08 A303 RMK A01 T01361083  RH  021%=      5-min Rain = 0
KSB1 201822Z 21009KT 14/M08 A303 RMK A01 T01351081  RH  022%=      5-min Rain = 0
KSB1 201823Z 22008KT 13/M08 A303 RMK A01 T01331083  RH  022%=      5-min Rain = 0
KSB1 201824Z 23006KT 13/M08 A303 RMK A01 T01321084  RH  021%=      5-min Rain = 0
KSB1 201825Z 25005KT 13/M09 A303 RMK A01 T01321086  RH  021%=      5-min Rain = 0
KSB1 201826Z 23005KT 13/M08 A3029 RMK A01 T01331083  RH  021%=      5-min Rain = 0
KSB1 201827Z 21006KT 14/M08 A3029 RMK A01 T01351081  RH  022%=      5-min Rain = 0
KSB1 201828Z 21006KT 14/M08 A3029 RMK A01 T01371080  RH  021%=      5-min Rain = 0
KSB1 201829Z 21007KT 14/M08 A3029 RMK A01 T01371082  RH  021%=      5-min Rain = 0
KSB1 201830Z 21008KT 14/M08 A3029 RMK A01 T01351083  RH  021%=      5-min Rain = 0
KSB1 201831Z 21007KT 13/M08 A3029 RMK A01 T01331084  RH  021%=      5-min Rain = 0
KSB1 201832Z 20005KT 13/M08 A3029 RMK A01 T01331082  RH  022%=      5-min Rain = 0
KSB1 201833Z 21004KT 13/M08 A3029 RMK A01 T01341080  RH  022%=      5-min Rain = 0
KSB1 201834Z 21004KT 14/M08 A3029 RMK A01 T01361078  RH  022%=      5-min Rain = 0
KSB1 201835Z 22004KT 14/M08 A3029 RMK A01 T01371081  RH  021%=      5-min Rain = 0
KSB1 201836Z 21007KT 14/M08 A3029 RMK A01 T01371082  RH  021%=      5-min Rain = 0
KSB1 201837Z 20006KT 14/M09 A3029 RMK A01 T01351086  RH  021%=      5-min Rain = 0
KSB1 201838Z 22006KT 13/M08 A3029 RMK A01 T01341083  RH  021%=      5-min Rain = 0
KSB1 201839Z 21008KT 14/M08 A3029 RMK A01 T01381079  RH  021%=      5-min Rain = 0
KSB1 201840Z 21008KT 14/M08 A3028 RMK A01 T01411082  RH  021%=      5-min Rain = 0
KSB1 201841Z 21008KT 14/M09 A3028 RMK A01 T01391085  RH  020%=      5-min Rain = 0
KSB1 201842Z 22008KT 14/M08 A3028 RMK A01 T01381084  RH  021%=      5-min Rain = 0
KSB1 201843Z 24005KT 14/M09 A3028 RMK A01 T01371085  RH  021%=      5-min Rain = 0
KSB1 201844Z 23007KT 14/M09 A3028 RMK A01 T01361085  RH  021%=      5-min Rain = 0
KSB1 201845Z 25004KT 14/M09 A3028 RMK A01 T01351085  RH  021%=      5-min Rain = 0
KSB1 201846Z 22003KT 14/M09 A3028 RMK A01 T01361088  RH  020%=      5-min Rain = 0
KSB1 201847Z 20007KT 14/M08 A3028 RMK A01 T01371084  RH  021%=      5-min Rain = 0
KSB1 201848Z 21006KT 14/M08 A3028 RMK A01 T01381082  RH  021%=      5-min Rain = 0
KSB1 201849Z 23005KT 14/M08 A3028 RMK A01 T01381081  RH  021%=      5-min Rain = 0
KSB1 201850Z 25005KT 14/M08 A3028 RMK A01 T01391082  RH  021%=      5-min Rain = 0
KSB1 201851Z 25005KT 14/M08 A3027 RMK A01 T01391084  RH  021%=      5-min Rain = 0
KSB1 201852Z 21003KT 14/M08 A3027 RMK A01 T01381083  RH  021%=      5-min Rain = 0
KSB1 201853Z 21005KT 14/M08 A3027 RMK A01 T01381082  RH  021%=      5-min Rain = 0
KSB1 201854Z 20004KT 14/M08 A3027 RMK A01 T01371083  RH  021%=      5-min Rain = 0
KSB1 201855Z 20004KT 14/M08 A3027 RMK A01 T01361083  RH  021%=      5-min Rain = 0
KSB1 201856Z 18006KT 14/M08 A3027 RMK A01 T01371079  RH  022%=      5-min Rain = 0
KSB1 201857Z 19005KT 14/M08 A3027 RMK A01 T01401078  RH  021%=      5-min Rain = 0
KSB1 201858Z 19006KT 14/M08 A3027 RMK A01 T01421076  RH  021%=      5-min Rain = 0
KSB1 201859Z 19007KT 15/M08 A3026 RMK A01 T01461076  RH  021%=      5-min Rain = 0
KSB1 201900Z 19006KT 15/M08 A3026 RMK A01 T01461079  RH  020%=      5-min Rain = 0
KSB1 201901Z 20004KT 14/M08 A3026 RMK A01 T01431080  RH  020%=      5-min Rain = 0
KSB1 201902Z 21007KT 15/M08 A3026 RMK A01 T01451079  RH  021%=      5-min Rain = 0
KSB1 201903Z 20007KT 14/M08 A3026 RMK A01 T01431082  RH  020%=      5-min Rain = 0
KSB1 201904Z 20005KT 14/M08 A3026 RMK A01 T01421081  RH  021%=      5-min Rain = 0
KSB1 201905Z 20004KT 14/M08 A3026 RMK A01 T01441081  RH  020%=      5-min Rain = 0
KSB1 201906Z 22004KT 14/M08 A3026 RMK A01 T01441083  RH  020%=      5-min Rain = 0
KSB1 201907Z 22008KT 15/M08 A3026 RMK A01 T01461082  RH  020%=      5-min Rain = 0
KSB1 201908Z 21007KT 15/M09 A3026 RMK A01 T01461086  RH  019%=      5-min Rain = 0
KSB1 201909Z 22007KT 15/M09 A3026 RMK A01 T01461087  RH  019%=      5-min Rain = 0
KSB1 201910Z 22008KT 14/M09 A3026 RMK A01 T01441090  RH  019%=      5-min Rain = 0
KSB1 201911Z 22007KT 14/M09 A3026 RMK A01 T01441089  RH  019%=      5-min Rain = 0
KSB1 201912Z 23006KT 15/M09 A3026 RMK A01 T01451093  RH  018%=      5-min Rain = 0
KSB1 201913Z 22006KT 15/M09 A3025 RMK A01 T01471091  RH  018%=      5-min Rain = 0
KSB1 201914Z 21005KT 15/M09 A3025 RMK A01 T01491090  RH  018%=      5-min Rain = 0
KSB1 201915Z 22004KT 15/M09 A3025 RMK A01 T01511086  RH  019%=      5-min Rain = 0
KSB1 201916Z 21005KT 15/M09 A3025 RMK A01 T01531085  RH  019%=      5-min Rain = 0
KSB1 201917Z 21004KT 15/M08 A3025 RMK A01 T01541084  RH  019%=      5-min Rain = 0
KSB1 201918Z 20007KT 16/M08 A3025 RMK A01 T01551083  RH  019%=      5-min Rain = 0
KSB1 201919Z 22008KT 15/M09 A3025 RMK A01 T01541085  RH  018%=      5-min Rain = 0
KSB1 201920Z 21008KT 15/M09 A3025 RMK A01 T01541092  RH  017%=      5-min Rain = 0
KSB1 201921Z 22004KT 15/M10 A3025 RMK A01 T01521099  RH  017%=      5-min Rain = 0
KSB1 201922Z 23003KT 15/M10 A3025 RMK A01 T01501099  RH  017%=      5-min Rain = 0
KSB1 201923Z 24004KT 15/M10 A3024 RMK A01 T01501096  RH  017%=      5-min Rain = 0
KSB1 201924Z 24005KT 15/M09 A3024 RMK A01 T01511093  RH  018%=      5-min Rain = 0
KSB1 201925Z 21004KT 15/M09 A3024 RMK A01 T01531088  RH  018%=      5-min Rain = 0
KSB1 201926Z 23005KT 16/M09 A3024 RMK A01 T01561086  RH  018%=      5-min Rain = 0
KSB1 201927Z 21006KT 16/M09 A3024 RMK A01 T01561092  RH  017%=      5-min Rain = 0
KSB1 201928Z 19008KT 16/M09 A3024 RMK A01 T01551089  RH  018%=      5-min Rain = 0
KSB1 201929Z 20009KT 15/M09 A3024 RMK A01 T01531090  RH  018%=      5-min Rain = 0
KSB1 201930Z 23010KT 15/M10 A3024 RMK A01 T01541095  RH  017%=      5-min Rain = 0
KSB1 201931Z 22006KT 16/M10 A3024 RMK A01 T01551100  RH  016%=      5-min Rain = 0
KSB1 201932Z 23006KT 16/M10 A3024 RMK A01 T01551102  RH  016%=      5-min Rain = 0
KSB1 201933Z 21004KT 16/M10 A3024 RMK A01 T01561103  RH  016%=      5-min Rain = 0
KSB1 201934Z 21007KT 16/M10 A3024 RMK A01 T01551103  RH  016%=      5-min Rain = 0
KSB1 201935Z 23006KT 16/M10 A3024 RMK A01 T01551103  RH  016%=      5-min Rain = 0
KSB1 201936Z 21005KT 15/M10 A3024 RMK A01 T01531103  RH  016%=      5-min Rain = 0
KSB1 201937Z 20007KT 15/M10 A3024 RMK A01 T01521103  RH  016%=      5-min Rain = 0
KSB1 201938Z 21005G10KT 15/M10 A3024 RMK A01 T01531099  RH  017%=      5-min Rain = 0
KSB1 201939Z 22004KT 15/M10 A3023 RMK A01 T01541099  RH  017%=      5-min Rain = 0
KSB1 201940Z 25007KT 16/M10 A3023 RMK A01 T01561098  RH  016%=      5-min Rain = 0
KSB1 201941Z 22007KT 16/M10 A3023 RMK A01 T01601104  RH  015%=      5-min Rain = 0
KSB1 201942Z 21007KT 16/M10 A3023 RMK A01 T01621095  RH  016%=      5-min Rain = 0
KSB1 201943Z 23006KT 16/M10 A3023 RMK A01 T01621098  RH  016%=      5-min Rain = 0
KSB1 201944Z 26007KT 16/M11 A3023 RMK A01 T01601114  RH  014%=      5-min Rain = 0
KSB1 201945Z 26007KT 16/M12 A3023 RMK A01 T01591120  RH  014%=      5-min Rain = 0
KSB1 201946Z 26005KT 16/M12 A3023 RMK A01 T01581122  RH  013%=      5-min Rain = 0
KSB1 201947Z 27005KT 16/M12 A3023 RMK A01 T01571121  RH  014%=      5-min Rain = 0
KSB1 201948Z 25007KT 16/M12 A3023 RMK A01 T01571121  RH  014%=      5-min Rain = 0
KSB1 201949Z 24008KT 16/M12 A3023 RMK A01 T01591121  RH  014%=      5-min Rain = 0
KSB1 201950Z 24008KT 16/M12 A3023 RMK A01 T01611120  RH  013%=      5-min Rain = 0
KSB1 201951Z 25007KT 16/M12 A3023 RMK A01 T01611123  RH  013%=      5-min Rain = 0
KSB1 201952Z 25005KT 16/M13 A3023 RMK A01 T01611125  RH  013%=      5-min Rain = 0
KSB1 201953Z 26004KT 16/M12 A3023 RMK A01 T01601124  RH  013%=      5-min Rain = 0
KSB1 201954Z 28004KT 16/M13 A3023 RMK A01 T01601126  RH  013%=      5-min Rain = 0
KSB1 201955Z 24005KT 16/M12 A3023 RMK A01 T01591124  RH  013%=      5-min Rain = 0
KSB1 201956Z 23003KT 16/M13 A3023 RMK A01 T01581127  RH  013%=      5-min Rain = 0
KSB1 201957Z 23005KT 16/M12 A3023 RMK A01 T01581124  RH  013%=      5-min Rain = 0
KSB1 201958Z 22009KT 16/M12 A3023 RMK A01 T01621119  RH  013%=      5-min Rain = 0
KSB1 201959Z 22008KT 16/M12 A3023 RMK A01 T01621124  RH  013%=      5-min Rain = 0
KSB1 202000Z 22008KT 16/M13 A3023 RMK A01 T01601125  RH  013%=      5-min Rain = 0
KSB1 202001Z 23007KT 16/M12 A3023 RMK A01 T01601124  RH  013%=      5-min Rain = 0
KSB1 202002Z 24005KT 16/M12 A3023 RMK A01 T01611124  RH  013%=      5-min Rain = 0
KSB1 202003Z 24010KT 16/M12 A3023 RMK A01 T01631122  RH  013%=      5-min Rain = 0
KSB1 202004Z 24007KT 16/M12 A3023 RMK A01 T01631121  RH  013%=      5-min Rain = 0
KSB1 202005Z 23008KT 16/M12 A3023 RMK A01 T01621122  RH  013%=      5-min Rain = 0
KSB1 202006Z 24006KT 16/M12 A3023 RMK A01 T01611121  RH  013%=      5-min Rain = 0
KSB1 202007Z 24004KT 16/M12 A3023 RMK A01 T01621121  RH  013%=      5-min Rain = 0
KSB1 202008Z 22007KT 16/M12 A3022 RMK A01 T01611123  RH  013%=      5-min Rain = 0
KSB1 202009Z 21006KT 16/M12 A3022 RMK A01 T01621123  RH  013%=      5-min Rain = 0
KSB1 202010Z 21006KT 16/M12 A3022 RMK A01 T01621122  RH  013%=      5-min Rain = 0
KSB1 202011Z 23007KT 16/M12 A3022 RMK A01 T01621121  RH  013%=      5-min Rain = 0
KSB1 202012Z 22005KT 16/M12 A3022 RMK A01 T01621121  RH  013%=      5-min Rain = 0
KSB1 202013Z 24009KT 16/M12 A3022 RMK A01 T01631119  RH  013%=      5-min Rain = 0
KSB1 202014Z 23010KT 16/M12 A3022 RMK A01 T01631120  RH  013%=      5-min Rain = 0
KSB1 202015Z 22008KT 16/M12 A3022 RMK A01 T01611120  RH  013%=      5-min Rain = 0
KSB1 202016Z 22009KT 16/M12 A3022 RMK A01 T01611120  RH  013%=      5-min Rain = 0
KSB1 202017Z 23009KT 16/M12 A3022 RMK A01 T01631120  RH  013%=      5-min Rain = 0
KSB1 202018Z 24008KT 16/M12 A3022 RMK A01 T01631121  RH  013%=      5-min Rain = 0
KSB1 202019Z 22006KT 16/M12 A3022 RMK A01 T01621122  RH  013%=      5-min Rain = 0
KSB1 202020Z 22008KT 16/M12 A3022 RMK A01 T01621120  RH  013%=      5-min Rain = 0
KSB1 202021Z 23010KT 16/M12 A3022 RMK A01 T01631120  RH  013%=      5-min Rain = 0
KSB1 202022Z 23010KT 16/M12 A3022 RMK A01 T01631119  RH  013%=      5-min Rain = 0
KSB1 202023Z 23010KT 16/M12 A3022 RMK A01 T01641118  RH  013%=      5-min Rain = 0
KSB1 202024Z 23009KT 16/M12 A3022 RMK A01 T01631120  RH  013%=      5-min Rain = 0
KSB1 202025Z 24008KT 16/M12 A3022 RMK A01 T01631118  RH  013%=      5-min Rain = 0
KSB1 202026Z 24005KT 16/M12 A3022 RMK A01 T01631118  RH  013%=      5-min Rain = 0
KSB1 202027Z 22007KT 16/M12 A3022 RMK A01 T01631119  RH  013%=      5-min Rain = 0
KSB1 202028Z 22007KT 16/M12 A3021 RMK A01 T01631121  RH  013%=      5-min Rain = 0
KSB1 202029Z 23007KT 16/M12 A3021 RMK A01 T01641120  RH  013%=      5-min Rain = 0
KSB1 202030Z 22007KT 17/M12 A3021 RMK A01 T01671117  RH  013%=      5-min Rain = 0
KSB1 202031Z 21008KT 17/M12 A3021 RMK A01 T01691115  RH  013%=      5-min Rain = 0
KSB1 202032Z 22010KT 17/M11 A3021 RMK A01 T01701114  RH  013%=      5-min Rain = 0
KSB1 202033Z 22007KT 17/M12 A3021 RMK A01 T01661119  RH  013%=      5-min Rain = 0
KSB1 202034Z 21007G12KT 16/M12 A3021 RMK A01 T01631118  RH  013%=      5-min Rain = 0
KSB1 202035Z 22009KT 17/M11 A3021 RMK A01 T01651114  RH  014%=      5-min Rain = 0
KSB1 202036Z 22006KT 17/M12 A3021 RMK A01 T01651116  RH  013%=      5-min Rain = 0
KSB1 202037Z 21006KT 16/M12 A3021 RMK A01 T01631118  RH  013%=      5-min Rain = 0
KSB1 202038Z 19008KT 16/M12 A3021 RMK A01 T01631117  RH  014%=      5-min Rain = 0
KSB1 202039Z 21008KT 16/M11 A3021 RMK A01 T01641114  RH  014%=      5-min Rain = 0
KSB1 202040Z 22007KT 17/M11 A3021 RMK A01 T01671111  RH  014%=      5-min Rain = 0
KSB1 202041Z 21008KT 17/M11 A3021 RMK A01 T01681111  RH  014%=      5-min Rain = 0
KSB1 202042Z 20009KT 17/M11 A3021 RMK A01 T01671113  RH  014%=      5-min Rain = 0
KSB1 202043Z 21010KT 17/M11 A302 RMK A01 T01671113  RH  014%=      5-min Rain = 0
KSB1 202044Z 21009KT 17/M11 A302 RMK A01 T01671113  RH  014%=      5-min Rain = 0
KSB1 202045Z 21010KT 17/M11 A302 RMK A01 T01671114  RH  013%=      5-min Rain = 0
KSB1 202046Z 20009KT 17/M12 A302 RMK A01 T01661115  RH  013%=      5-min Rain = 0
KSB1 202047Z 19007KT 17/M12 A302 RMK A01 T01651115  RH  013%=      5-min Rain = 0
KSB1 202048Z 20008KT 17/M12 A302 RMK A01 T01651115  RH  014%=      5-min Rain = 0
KSB1 202049Z 21010KT 17/M12 A302 RMK A01 T01671115  RH  013%=      5-min Rain = 0
KSB1 202050Z 20008KT 17/M12 A302 RMK A01 T01671117  RH  013%=      5-min Rain = 0
KSB1 202051Z 21006KT 17/M12 A302 RMK A01 T01651119  RH  013%=      5-min Rain = 0
KSB1 202052Z 21006KT 17/M12 A302 RMK A01 T01651117  RH  013%=      5-min Rain = 0
KSB1 202053Z 22008KT 17/M11 A302 RMK A01 T01701113  RH  013%=      5-min Rain = 0
KSB1 202054Z 19006KT 17/M12 A302 RMK A01 T01681120  RH  013%=      5-min Rain = 0
KSB1 202055Z 19007KT 17/M12 A302 RMK A01 T01671117  RH  013%=      5-min Rain = 0
KSB1 202056Z 20007KT 17/M12 A302 RMK A01 T01701115  RH  013%=      5-min Rain = 0
KSB1 202057Z 21008KT 17/M12 A302 RMK A01 T01711115  RH  013%=      5-min Rain = 0
KSB1 202058Z 21007KT 17/M12 A302 RMK A01 T01691118  RH  013%=      5-min Rain = 0
KSB1 202059Z 23008KT 17/M12 A302 RMK A01 T01671119  RH  013%=      5-min Rain = 0
KSB1 202100Z 22008KT 17/M12 A302 RMK A01 T01671117  RH  013%=      5-min Rain = 0
KSB1 202101Z 21007KT 17/M12 A302 RMK A01 T01671116  RH  013%=      5-min Rain = 0
KSB1 202102Z 22010KT 17/M11 A302 RMK A01 T01691114  RH  013%=      5-min Rain = 0
KSB1 202103Z 22010KT 17/M12 A302 RMK A01 T01691117  RH  013%=      5-min Rain = 0
KSB1 202104Z 23008KT 17/M12 A302 RMK A01 T01661119  RH  013%=      5-min Rain = 0
KSB1 202105Z 23006KT 17/M12 A302 RMK A01 T01661117  RH  013%=      5-min Rain = 0
KSB1 202106Z 23004KT 17/M12 A302 RMK A01 T01661118  RH  013%=      5-min Rain = 0
KSB1 202107Z 20006KT 17/M12 A302 RMK A01 T01671118  RH  013%=      5-min Rain = 0
KSB1 202108Z 22006KT 17/M11 A302 RMK A01 T01701113  RH  013%=      5-min Rain = 0
KSB1 202109Z 21007G12KT 17/M11 A302 RMK A01 T01731113  RH  013%=      5-min Rain = 0
KSB1 202110Z 21009KT 17/M11 A302 RMK A01 T01731113  RH  013%=      5-min Rain = 0
KSB1 202111Z 20010KT 17/M11 A302 RMK A01 T01731114  RH  013%=      5-min Rain = 0
KSB1 202112Z 20009KT 17/M11 A302 RMK A01 T01721112  RH  013%=      5-min Rain = 0
KSB1 202113Z 21007KT 17/M11 A302 RMK A01 T01711114  RH  013%=      5-min Rain = 0
KSB1 202114Z 23008KT 17/M11 A302 RMK A01 T01681114  RH  013%=      5-min Rain = 0
KSB1 202115Z 22010KT 17/M11 A302 RMK A01 T01701110  RH  014%=      5-min Rain = 0
KSB1 202116Z 23009KT 17/M11 A302 RMK A01 T01701111  RH  014%=      5-min Rain = 0
KSB1 202117Z 22011KT 17/M11 A3019 RMK A01 T01681110  RH  014%=      5-min Rain = 0
KSB1 202118Z 21010KT 17/M11 A3019 RMK A01 T01681110  RH  014%=      5-min Rain = 0
KSB1 202119Z 22010KT 17/M11 A302 RMK A01 T01681110  RH  014%=      5-min Rain = 0
KSB1 202120Z 21007KT 17/M11 A302 RMK A01 T01681111  RH  014%=      5-min Rain = 0
KSB1 202121Z 20006KT 17/M11 A302 RMK A01 T01661113  RH  014%=      5-min Rain = 0
KSB1 202122Z 20007KT 17/M11 A3019 RMK A01 T01651113  RH  014%=      5-min Rain = 0
KSB1 202123Z 20010KT 17/M11 A3019 RMK A01 T01651111  RH  014%=      5-min Rain = 0
KSB1 202124Z 21009KT 17/M11 A3019 RMK A01 T01681107  RH  014%=      5-min Rain = 0
KSB1 202125Z 23009KT 17/M11 A3019 RMK A01 T01691108  RH  014%=      5-min Rain = 0
KSB1 202126Z 22009KT 17/M11 A3019 RMK A01 T01681108  RH  014%=      5-min Rain = 0
KSB1 202127Z 21010KT 17/M11 A3019 RMK A01 T01671108  RH  014%=      5-min Rain = 0
KSB1 202128Z 20010KT 17/M11 A3019 RMK A01 T01671109  RH  014%=      5-min Rain = 0
KSB1 202129Z 21010KT 17/M11 A3019 RMK A01 T01681108  RH  014%=      5-min Rain = 0
KSB1 202130Z 22009KT 17/M11 A3019 RMK A01 T01681109  RH  014%=      5-min Rain = 0
KSB1 202131Z 21010KT 17/M11 A3019 RMK A01 T01681106  RH  014%=      5-min Rain = 0
KSB1 202132Z 23010KT 17/M11 A3019 RMK A01 T01691106  RH  014%=      5-min Rain = 0
KSB1 202133Z 23008KT 17/M11 A3019 RMK A01 T01681109  RH  014%=      5-min Rain = 0
KSB1 202134Z 23008KT 17/M11 A3019 RMK A01 T01671109  RH  014%=      5-min Rain = 0
KSB1 202135Z 22008KT 17/M11 A3019 RMK A01 T01691105  RH  014%=      5-min Rain = 0
KSB1 202136Z 21009KT 17/M10 A3019 RMK A01 T01691102  RH  015%=      5-min Rain = 0
KSB1 202137Z 20007KT 17/M10 A3019 RMK A01 T01691101  RH  015%=      5-min Rain = 0
KSB1 202138Z 20007KT 17/M10 A3019 RMK A01 T01691099  RH  015%=      5-min Rain = 0
KSB1 202139Z 20008KT 17/M10 A3019 RMK A01 T01711099  RH  015%=      5-min Rain = 0
KSB1 202140Z 21010KT 17/M10 A3018 RMK A01 T01711102  RH  014%=      5-min Rain = 0
KSB1 202141Z 21010KT 17/M11 A3018 RMK A01 T01691108  RH  014%=      5-min Rain = 0
KSB1 202142Z 20011KT 17/M11 A3018 RMK A01 T01681107  RH  014%=      5-min Rain = 0
KSB1 202143Z 20010KT 17/M11 A3018 RMK A01 T01681107  RH  014%=      5-min Rain = 0
KSB1 202144Z 20009KT 17/M11 A3019 RMK A01 T01671108  RH  014%=      5-min Rain = 0
KSB1 202145Z 21008KT 17/M11 A3018 RMK A01 T01671106  RH  014%=      5-min Rain = 0
KSB1 202146Z 21009KT 17/M10 A3018 RMK A01 T01671103  RH  015%=      5-min Rain = 0
KSB1 202147Z 21009KT 17/M10 A3018 RMK A01 T01691103  RH  015%=      5-min Rain = 0
KSB1 202148Z 22008KT 17/M10 A3019 RMK A01 T01711101  RH  015%=      5-min Rain = 0
KSB1 202149Z 22009KT 17/M10 A3019 RMK A01 T01731102  RH  014%=      5-min Rain = 0
KSB1 202150Z 23009KT 17/M11 A3019 RMK A01 T01711106  RH  014%=      5-min Rain = 0
KSB1 202151Z 22007KT 17/M11 A3019 RMK A01 T01691106  RH  014%=      5-min Rain = 0
KSB1 202152Z 20010KT 17/M10 A3019 RMK A01 T01711104  RH  014%=      5-min Rain = 0
KSB1 202153Z 22007KT 17/M11 A3019 RMK A01 T01691106  RH  014%=      5-min Rain = 0
KSB1 202154Z 20007KT 17/M10 A3019 RMK A01 T01671104  RH  015%=      5-min Rain = 0
KSB1 202155Z 20010KT 17/M10 A3019 RMK A01 T01681102  RH  015%=      5-min Rain = 0
KSB1 202156Z 20009KT 17/M10 A3019 RMK A01 T01691104  RH  014%=      5-min Rain = 0
KSB1 202157Z 21009KT 17/M11 A3019 RMK A01 T01661107  RH  014%=      5-min Rain = 0
KSB1 202158Z 21010KT 17/M11 A3019 RMK A01 T01651108  RH  014%=      5-min Rain = 0
KSB1 202159Z 22007KT 16/M11 A3019 RMK A01 T01641109  RH  014%=      5-min Rain = 0
KSB1 202200Z 21008KT 17/M11 A3019 RMK A01 T01661106  RH  015%=      5-min Rain = 0
KSB1 202201Z 22008KT 17/M10 A3019 RMK A01 T01691104  RH  014%=      5-min Rain = 0
KSB1 202202Z 22007KT 17/M11 A3019 RMK A01 T01701105  RH  014%=      5-min Rain = 0
KSB1 202203Z 22007KT 17/M11 A3019 RMK A01 T01701105  RH  014%=      5-min Rain = 0
KSB1 202204Z 23008KT 17/M11 A3019 RMK A01 T01681106  RH  014%=      5-min Rain = 0
KSB1 202205Z 21009KT 17/M11 A3019 RMK A01 T01671105  RH  014%=      5-min Rain = 0
KSB1 202206Z 21008KT 17/M11 A3019 RMK A01 T01671105  RH  015%=      5-min Rain = 0
KSB1 202207Z 22007KT 17/M11 A3018 RMK A01 T01661105  RH  015%=      5-min Rain = 0
KSB1 202208Z 20008KT 17/M10 A3018 RMK A01 T01671103  RH  015%=      5-min Rain = 0
KSB1 202209Z 19010KT 17/M10 A3018 RMK A01 T01691103  RH  015%=      5-min Rain = 0
KSB1 202210Z 20010KT 17/M10 A3018 RMK A01 T01681104  RH  014%=      5-min Rain = 0
KSB1 202211Z 19008KT 17/M11 A3018 RMK A01 T01661106  RH  015%=      5-min Rain = 0
KSB1 202212Z 18006KT 17/M11 A3018 RMK A01 T01651105  RH  015%=      5-min Rain = 0
KSB1 202213Z 19008KT 17/M10 A3018 RMK A01 T01651104  RH  015%=      5-min Rain = 0
KSB1 202214Z 19006KT 17/M10 A3018 RMK A01 T01661104  RH  015%=      5-min Rain = 0
KSB1 202215Z 21007KT 17/M10 A3018 RMK A01 T01651104  RH  015%=      5-min Rain = 0
KSB1 202216Z 21006KT 16/M10 A3018 RMK A01 T01641104  RH  015%=      5-min Rain = 0
KSB1 202217Z 19007KT 17/M10 A3018 RMK A01 T01661101  RH  015%=      5-min Rain = 0
KSB1 202218Z 19008KT 17/M10 A3018 RMK A01 T01681101  RH  015%=      5-min Rain = 0
KSB1 202219Z 21009KT 17/M10 A3018 RMK A01 T01681102  RH  015%=      5-min Rain = 0
KSB1 202220Z 20010KT 17/M10 A3018 RMK A01 T01691103  RH  015%=      5-min Rain = 0
KSB1 202221Z 21009KT 17/M10 A3018 RMK A01 T01671104  RH  015%=      5-min Rain = 0
KSB1 202222Z 22008KT 17/M11 A3018 RMK A01 T01671105  RH  015%=      5-min Rain = 0
KSB1 202223Z 21009KT 17/M11 A3018 RMK A01 T01671105  RH  014%=      5-min Rain = 0
KSB1 202224Z 20009KT 17/M11 A3018 RMK A01 T01671107  RH  014%=      5-min Rain = 0
KSB1 202225Z 20011KT 17/M11 A3018 RMK A01 T01681107  RH  014%=      5-min Rain = 0
KSB1 202226Z 21009KT 17/M11 A3018 RMK A01 T01681107  RH  014%=      5-min Rain = 0
KSB1 202227Z 20010KT 17/M11 A3018 RMK A01 T01681108  RH  014%=      5-min Rain = 0
KSB1 202228Z 20009KT 17/M11 A3018 RMK A01 T01681108  RH  014%=      5-min Rain = 0
KSB1 202229Z 21009KT 17/M11 A3018 RMK A01 T01701105  RH  014%=      5-min Rain = 0
KSB1 202230Z 22010KT 17/M11 A3018 RMK A01 T01701105  RH  014%=      5-min Rain = 0
KSB1 202231Z 21009KT 17/M11 A3018 RMK A01 T01711105  RH  014%=      5-min Rain = 0
KSB1 202232Z 22009KT 17/M10 A3018 RMK A01 T01711104  RH  014%=      5-min Rain = 0
KSB1 202233Z 22010KT 17/M10 A3018 RMK A01 T01721104  RH  014%=      5-min Rain = 0
KSB1 202234Z 22008KT 17/M11 A3018 RMK A01 T01701106  RH  014%=      5-min Rain = 0
KSB1 202235Z 20007KT 17/M11 A3018 RMK A01 T01691105  RH  014%=      5-min Rain = 0
KSB1 202236Z 21005KT 17/M10 A3018 RMK A01 T01701103  RH  014%=      5-min Rain = 0
KSB1 202237Z 20009KT 17/M10 A3018 RMK A01 T01721103  RH  014%=      5-min Rain = 0
KSB1 202238Z 20008KT 17/M10 A3018 RMK A01 T01721104  RH  014%=      5-min Rain = 0
KSB1 202239Z 20007KT 17/M10 A3018 RMK A01 T01721103  RH  014%=      5-min Rain = 0
KSB1 202240Z 20008KT 17/M10 A3018 RMK A01 T01721102  RH  014%=      5-min Rain = 0
KSB1 202241Z 22007KT 17/M10 A3018 RMK A01 T01721103  RH  014%=      5-min Rain = 0
KSB1 202242Z 21006KT 17/M10 A3018 RMK A01 T01711103  RH  014%=      5-min Rain = 0
KSB1 202243Z 21007KT 17/M10 A3018 RMK A01 T01721104  RH  014%=      5-min Rain = 0
KSB1 202244Z 22008KT 17/M11 A3018 RMK A01 T01721105  RH  014%=      5-min Rain = 0
KSB1 202245Z 23009KT 17/M11 A3017 RMK A01 T01721105  RH  014%=      5-min Rain = 0
KSB1 202246Z 24007KT 17/M10 A3018 RMK A01 T01721102  RH  014%=      5-min Rain = 0
KSB1 202247Z 24007KT 17/M10 A3018 RMK A01 T01721101  RH  015%=      5-min Rain = 0
KSB1 202248Z 24007KT 17/M10 A3018 RMK A01 T01711100  RH  015%=      5-min Rain = 0
KSB1 202249Z 23007KT 17/M10 A3018 RMK A01 T01711100  RH  015%=      5-min Rain = 0
KSB1 202250Z 21006KT 17/M10 A3018 RMK A01 T01721100  RH  015%=      5-min Rain = 0
KSB1 202251Z 22006KT 17/M10 A3018 RMK A01 T01711101  RH  015%=      5-min Rain = 0
KSB1 202252Z 21008KT 17/M10 A3018 RMK A01 T01691102  RH  015%=      5-min Rain = 0
KSB1 202253Z 22008KT 17/M10 A3018 RMK A01 T01681102  RH  015%=      5-min Rain = 0
KSB1 202254Z 22008KT 17/M10 A3017 RMK A01 T01681101  RH  015%=      5-min Rain = 0
KSB1 202255Z 22008KT 17/M10 A3017 RMK A01 T01671101  RH  015%=      5-min Rain = 0
KSB1 202256Z 22008KT 17/M10 A3017 RMK A01 T01671100  RH  015%=      5-min Rain = 0
KSB1 202257Z 22008KT 17/M10 A3017 RMK A01 T01681098  RH  015%=      5-min Rain = 0
KSB1 202258Z 22006KT 17/M10 A3017 RMK A01 T01681097  RH  015%=      5-min Rain = 0
KSB1 202259Z 22005KT 17/M10 A3017 RMK A01 T01671097  RH  015%=      5-min Rain = 0
KSB1 202300Z 21008KT 17/M10 A3017 RMK A01 T01671096  RH  016%=      5-min Rain = 0
KSB1 202301Z 20008KT 17/M10 A3017 RMK A01 T01671098  RH  015%=      5-min Rain = 0
KSB1 202302Z 21009KT 17/M10 A3017 RMK A01 T01681099  RH  015%=      5-min Rain = 0
KSB1 202303Z 21008KT 17/M10 A3017 RMK A01 T01691098  RH  015%=      5-min Rain = 0
KSB1 202304Z 20007KT 17/M10 A3017 RMK A01 T01691100  RH  015%=      5-min Rain = 0
KSB1 202305Z 21007KT 17/M10 A3017 RMK A01 T01691098  RH  015%=      5-min Rain = 0
KSB1 202306Z 21009KT 17/M10 A3017 RMK A01 T01691097  RH  015%=      5-min Rain = 0
KSB1 202307Z 22007KT 17/M10 A3017 RMK A01 T01681098  RH  015%=      5-min Rain = 0
KSB1 202308Z 21007KT 17/M10 A3017 RMK A01 T01661098  RH  015%=      5-min Rain = 0
KSB1 202309Z 21006KT 17/M10 A3017 RMK A01 T01661096  RH  016%=      5-min Rain = 0
KSB1 202310Z 20007KT 17/M10 A3017 RMK A01 T01671097  RH  015%=      5-min Rain = 0
KSB1 202311Z 20008KT 17/M10 A3017 RMK A01 T01661099  RH  015%=      5-min Rain = 0
KSB1 202312Z 21007KT 17/M10 A3017 RMK A01 T01661099  RH  015%=      5-min Rain = 0
KSB1 202313Z 20007KT 17/M10 A3017 RMK A01 T01651100  RH  015%=      5-min Rain = 0
KSB1 202314Z 21006KT 16/M10 A3016 RMK A01 T01641099  RH  015%=      5-min Rain = 0
KSB1 202315Z 20005KT 16/M10 A3016 RMK A01 T01641098  RH  016%=      5-min Rain = 0
KSB1 202316Z 20006KT 16/M10 A3016 RMK A01 T01641098  RH  016%=      5-min Rain = 0
KSB1 202317Z 21006KT 16/M10 A3016 RMK A01 T01641099  RH  016%=      5-min Rain = 0
KSB1 202318Z 21006KT 16/M10 A3016 RMK A01 T01641099  RH  016%=      5-min Rain = 0
KSB1 202319Z 20005KT 16/M10 A3016 RMK A01 T01641098  RH  016%=      5-min Rain = 0
KSB1 202320Z 20004KT 16/M10 A3016 RMK A01 T01641097  RH  016%=      5-min Rain = 0
KSB1 202321Z 21006KT 16/M10 A3016 RMK A01 T01641096  RH  016%=      5-min Rain = 0
KSB1 202322Z 21006KT 16/M10 A3016 RMK A01 T01641096  RH  016%=      5-min Rain = 0
KSB1 202323Z 22005KT 16/M10 A3016 RMK A01 T01641097  RH  016%=      5-min Rain = 0
KSB1 202324Z 23004KT 16/M10 A3016 RMK A01 T01641096  RH  016%=      5-min Rain = 0
KSB1 202325Z 23004KT 16/M10 A3016 RMK A01 T01641098  RH  016%=      5-min Rain = 0
KSB1 202326Z 23004KT 16/M10 A3016 RMK A01 T01641097  RH  016%=      5-min Rain = 0
KSB1 202327Z 23005KT 16/M10 A3016 RMK A01 T01641096  RH  016%=      5-min Rain = 0
KSB1 202328Z 22005KT 16/M10 A3016 RMK A01 T01641096  RH  016%=      5-min Rain = 0
KSB1 202329Z 21006KT 16/M10 A3016 RMK A01 T01641096  RH  016%=      5-min Rain = 0
KSB1 202330Z 21005KT 16/M10 A3016 RMK A01 T01631096  RH  016%=      5-min Rain = 0
KSB1 202331Z 22006KT 16/M10 A3016 RMK A01 T01631096  RH  016%=      5-min Rain = 0
KSB1 202332Z 21006KT 16/M10 A3016 RMK A01 T01621096  RH  016%=      5-min Rain = 0
KSB1 202333Z 21006KT 16/M10 A3016 RMK A01 T01611096  RH  016%=      5-min Rain = 0
KSB1 202334Z 21006KT 16/M10 A3016 RMK A01 T01611097  RH  016%=      5-min Rain = 0
KSB1 202335Z 21005KT 16/M10 A3016 RMK A01 T01611096  RH  016%=      5-min Rain = 0
KSB1 202336Z 21004KT 16/M10 A3016 RMK A01 T01611096  RH  016%=      5-min Rain = 0
KSB1 202337Z 21004KT 16/M10 A3016 RMK A01 T01601095  RH  016%=      5-min Rain = 0
KSB1 202338Z 21005KT 16/M10 A3016 RMK A01 T01601095  RH  016%=      5-min Rain = 0
KSB1 202339Z 21005KT 16/M10 A3016 RMK A01 T01601095  RH  016%=      5-min Rain = 0
KSB1 202340Z 21007KT 16/M10 A3015 RMK A01 T01611095  RH  016%=      5-min Rain = 0
KSB1 202341Z 20005KT 16/M10 A3015 RMK A01 T01611096  RH  016%=      5-min Rain = 0
KSB1 202342Z 20005KT 16/M10 A3015 RMK A01 T01611096  RH  016%=      5-min Rain = 0
KSB1 202343Z 21005KT 16/M09 A3015 RMK A01 T01611094  RH  016%=      5-min Rain = 0
KSB1 202344Z 21005KT 16/M09 A3015 RMK A01 T01621093  RH  016%=      5-min Rain = 0
KSB1 202345Z 21005KT 16/M09 A3015 RMK A01 T01621094  RH  016%=      5-min Rain = 0
KSB1 202346Z 21005KT 16/M09 A3015 RMK A01 T01621094  RH  016%=      5-min Rain = 0
KSB1 202347Z 21004KT 16/M09 A3015 RMK A01 T01621094  RH  016%=      5-min Rain = 0
KSB1 202348Z 22005KT 16/M09 A3015 RMK A01 T01621094  RH  016%=      5-min Rain = 0
KSB1 202349Z 22006KT 16/M10 A3015 RMK A01 T01621096  RH  016%=      5-min Rain = 0
KSB1 202350Z 22005KT 16/M10 A3015 RMK A01 T01621096  RH  016%=      5-min Rain = 0
KSB1 202351Z 23005KT 16/M10 A3015 RMK A01 T01621097  RH  016%=      5-min Rain = 0
KSB1 202352Z 22004KT 16/M10 A3015 RMK A01 T01611096  RH  016%=      5-min Rain = 0
KSB1 202353Z 21004KT 16/M10 A3015 RMK A01 T01611095  RH  016%=      5-min Rain = 0
KSB1 202354Z 22005KT 16/M10 A3015 RMK A01 T01611095  RH  016%=      5-min Rain = 0
KSB1 202355Z 21005KT 16/M10 A3015 RMK A01 T01611095  RH  016%=      5-min Rain = 0
KSB1 202356Z 21005KT 16/M10 A3015 RMK A01 T01611095  RH  016%=      5-min Rain = 0
KSB1 202357Z 21005KT 16/M10 A3015 RMK A01 T01611095  RH  016%=      5-min Rain = 0
KSB1 202358Z 21005KT 16/M10 A3015 RMK A01 T01601096  RH  016%=      5-min Rain = 0
KSB1 202359Z 21005KT 16/M10 A3015 RMK A01 T01601095  RH  016%=      5-min Rain = 0
KSB1 210000Z 22004KT 16/M09 A3015 RMK A01 T01601094  RH  016%=      5-min Rain = 0
KSB1 210001Z 22004KT 16/M09 A3015 RMK A01 T01601094  RH  017%=      5-min Rain = 0
KSB1 210002Z 22004KT 16/M09 A3015 RMK A01 T01601094  RH  017%=      5-min Rain = 0
KSB1 210003Z 22005KT 16/M09 A3015 RMK A01 T01601094  RH  017%=      5-min Rain = 0
KSB1 210004Z 22004KT 16/M09 A3015 RMK A01 T01591094  RH  017%=      5-min Rain = 0
KSB1 210005Z 22004KT 16/M09 A3015 RMK A01 T01591094  RH  017%=      5-min Rain = 0
KSB1 210006Z 22005KT 16/M09 A3015 RMK A01 T01581093  RH  017%=      5-min Rain = 0
KSB1 210007Z 22005KT 16/M09 A3015 RMK A01 T01581094  RH  017%=      5-min Rain = 0
KSB1 210008Z 22006KT 16/M10 A3015 RMK A01 T01571095  RH  017%=      5-min Rain = 0
KSB1 210009Z 22005KT 16/M10 A3015 RMK A01 T01561095  RH  017%=      5-min Rain = 0
KSB1 210010Z 22004KT 16/M10 A3015 RMK A01 T01561096  RH  017%=      5-min Rain = 0
KSB1 210011Z 22004KT 16/M10 A3015 RMK A01 T01551095  RH  017%=      5-min Rain = 0
KSB1 210012Z 22004KT 15/M10 A3014 RMK A01 T01541095  RH  017%=      5-min Rain = 0
KSB1 210013Z 22004KT 15/M10 A3014 RMK A01 T01541095  RH  017%=      5-min Rain = 0
KSB1 210014Z 22003KT 15/M09 A3014 RMK A01 T01531094  RH  017%=      5-min Rain = 0
KSB1 210015Z 22003KT 15/M10 A3014 RMK A01 T01521095  RH  017%=      5-min Rain = 0
KSB1 210016Z 22003KT 15/M10 A3014 RMK A01 T01511095  RH  017%=      5-min Rain = 0
KSB1 210017Z 22003KT 15/M10 A3014 RMK A01 T01501095  RH  017%=      5-min Rain = 0
KSB1 210018Z 22003KT 15/M10 A3014 RMK A01 T01491095  RH  018%=      5-min Rain = 0
KSB1 210019Z 22004KT 15/M10 A3014 RMK A01 T01491095  RH  018%=      5-min Rain = 0
KSB1 210020Z 22004KT 15/M10 A3014 RMK A01 T01481095  RH  018%=      5-min Rain = 0
KSB1 210021Z 22003KT 15/M10 A3014 RMK A01 T01471096  RH  018%=      5-min Rain = 0
KSB1 210022Z 22003KT 15/M10 A3014 RMK A01 T01471095  RH  018%=      5-min Rain = 0
KSB1 210023Z 21002KT 15/M10 A3014 RMK A01 T01471096  RH  018%=      5-min Rain = 0
KSB1 210024Z 21003KT 15/M10 A3014 RMK A01 T01461096  RH  018%=      5-min Rain = 0
KSB1 210025Z 22003KT 15/M10 A3014 RMK A01 T01461096  RH  018%=      5-min Rain = 0
KSB1 210026Z 22003KT 15/M10 A3014 RMK A01 T01461096  RH  018%=      5-min Rain = 0
KSB1 210027Z 22003KT 15/M10 A3014 RMK A01 T01451096  RH  018%=      5-min Rain = 0
KSB1 210028Z 22003KT 14/M10 A3014 RMK A01 T01431096  RH  018%=      5-min Rain = 0
KSB1 210029Z 21004KT 14/M10 A3014 RMK A01 T01421097  RH  018%=      5-min Rain = 0
KSB1 210030Z 21005KT 14/M10 A3014 RMK A01 T01401097  RH  018%=      5-min Rain = 0
KSB1 210031Z 22005KT 14/M10 A3014 RMK A01 T01381096  RH  019%=      5-min Rain = 0
KSB1 210032Z 22005KT 14/M10 A3014 RMK A01 T01361096  RH  019%=      5-min Rain = 0
KSB1 210033Z 22005KT 14/M10 A3014 RMK A01 T01351095  RH  019%=      5-min Rain = 0
KSB1 210034Z 21005KT 14/M10 A3014 RMK A01 T01351095  RH  019%=      5-min Rain = 0
KSB1 210035Z 22005KT 14/M09 A3014 RMK A01 T01351094  RH  019%=      5-min Rain = 0
KSB1 210036Z 22005KT 13/M10 A3014 RMK A01 T01341095  RH  019%=      5-min Rain = 0
KSB1 210037Z 21005KT 13/M09 A3014 RMK A01 T01331094  RH  020%=      5-min Rain = 0
KSB1 210038Z 21005KT 13/M09 A3014 RMK A01 T01311094  RH  020%=      5-min Rain = 0
KSB1 210039Z 21005KT 13/M09 A3014 RMK A01 T01311092  RH  020%=      5-min Rain = 0
KSB1 210040Z 20004KT 13/M09 A3014 RMK A01 T01301092  RH  020%=      5-min Rain = 0
KSB1 210041Z 21004KT 13/M09 A3014 RMK A01 T01291092  RH  021%=      5-min Rain = 0
KSB1 210042Z 20004KT 13/M09 A3014 RMK A01 T01271092  RH  021%=      5-min Rain = 0
KSB1 210043Z 20004KT 13/M09 A3014 RMK A01 T01251091  RH  021%=      5-min Rain = 0
KSB1 210044Z 19004KT 12/M09 A3014 RMK A01 T01241091  RH  021%=      5-min Rain = 0
KSB1 210045Z 20004KT 12/M09 A3014 RMK A01 T01231089  RH  022%=      5-min Rain = 0
KSB1 210046Z 19004KT 12/M09 A3014 RMK A01 T01231088  RH  022%=      5-min Rain = 0
KSB1 210047Z 19004KT 12/M09 A3014 RMK A01 T01231087  RH  022%=      5-min Rain = 0
KSB1 210048Z 19003KT 12/M09 A3014 RMK A01 T01231086  RH  022%=      5-min Rain = 0
KSB1 210049Z 20003KT 12/M09 A3014 RMK A01 T01231086  RH  022%=      5-min Rain = 0
KSB1 210050Z 19003KT 12/M09 A3014 RMK A01 T01231085  RH  022%=      5-min Rain = 0
KSB1 210051Z 20003KT 12/M09 A3014 RMK A01 T01231085  RH  022%=      5-min Rain = 0
KSB1 210052Z 21003KT 12/M09 A3014 RMK A01 T01241085  RH  023%=      5-min Rain = 0
KSB1 210053Z 21003KT 12/M09 A3014 RMK A01 T01241085  RH  023%=      5-min Rain = 0
KSB1 210054Z 21003KT 12/M08 A3014 RMK A01 T01241084  RH  023%=      5-min Rain = 0
KSB1 210055Z 21004KT 12/M08 A3014 RMK A01 T01241084  RH  023%=      5-min Rain = 0
KSB1 210056Z 21004KT 12/M08 A3014 RMK A01 T01241084  RH  023%=      5-min Rain = 0
KSB1 210057Z 22004KT 12/M08 A3014 RMK A01 T01231084  RH  023%=      5-min Rain = 0
KSB1 210058Z 23004KT 12/M08 A3015 RMK A01 T01221084  RH  023%=      5-min Rain = 0
KSB1 210059Z 23004KT 12/M09 A3015 RMK A01 T01211085  RH  023%=      5-min Rain = 0
KSB1 210100Z 22004KT 12/M08 A3015 RMK A01 T01201084  RH  023%=      5-min Rain = 0
KSB1 210101Z 23004KT 12/M08 A3015 RMK A01 T01201084  RH  023%=      5-min Rain = 0
KSB1 210102Z 22004KT 12/M08 A3015 RMK A01 T01201084  RH  023%=      5-min Rain = 0
KSB1 210103Z 22004KT 12/M08 A3015 RMK A01 T01191084  RH  023%=      5-min Rain = 0
KSB1 210104Z 22004KT 12/M08 A3015 RMK A01 T01181084  RH  023%=      5-min Rain = 0
KSB1 210105Z 22004KT 12/M08 A3015 RMK A01 T01171084  RH  024%=      5-min Rain = 0
KSB1 210106Z 22004KT 12/M08 A3015 RMK A01 T01171084  RH  024%=      5-min Rain = 0
KSB1 210107Z 22004KT 12/M08 A3015 RMK A01 T01161084  RH  024%=      5-min Rain = 0
KSB1 210108Z 21005KT 12/M08 A3015 RMK A01 T01161084  RH  024%=      5-min Rain = 0
KSB1 210109Z 20005KT 12/M08 A3015 RMK A01 T01161083  RH  024%=      5-min Rain = 0
KSB1 210110Z 20005KT 12/M08 A3015 RMK A01 T01151083  RH  024%=      5-min Rain = 0
KSB1 210111Z 20005KT 12/M08 A3015 RMK A01 T01151083  RH  024%=      5-min Rain = 0
KSB1 210112Z 20005KT 12/M08 A3015 RMK A01 T01151082  RH  024%=      5-min Rain = 0
KSB1 210113Z 20005KT 12/M08 A3014 RMK A01 T01151082  RH  024%=      5-min Rain = 0
KSB1 210114Z 19006KT 11/M08 A3015 RMK A01 T01141082  RH  024%=      5-min Rain = 0
KSB1 210115Z 19006KT 11/M08 A3015 RMK A01 T01141082  RH  025%=      5-min Rain = 0
KSB1 210116Z 19006KT 11/M08 A3015 RMK A01 T01141082  RH  025%=      5-min Rain = 0
KSB1 210117Z 19006KT 11/M08 A3015 RMK A01 T01141081  RH  025%=      5-min Rain = 0
KSB1 210118Z 20006KT 12/M08 A3015 RMK A01 T01151082  RH  024%=      5-min Rain = 0
KSB1 210119Z 20006KT 11/M08 A3015 RMK A01 T01141082  RH  024%=      5-min Rain = 0
KSB1 210120Z 20006KT 11/M08 A3015 RMK A01 T01131082  RH  025%=      5-min Rain = 0
KSB1 210121Z 20005KT 11/M08 A3015 RMK A01 T01131082  RH  025%=      5-min Rain = 0
KSB1 210122Z 20005KT 11/M08 A3015 RMK A01 T01131083  RH  025%=      5-min Rain = 0
KSB1 210123Z 20005KT 11/M08 A3015 RMK A01 T01121083  RH  025%=      5-min Rain = 0
KSB1 210124Z 21005KT 11/M08 A3015 RMK A01 T01121083  RH  025%=      5-min Rain = 0
KSB1 210125Z 22005KT 11/M08 A3015 RMK A01 T01121083  RH  025%=      5-min Rain = 0
KSB1 210126Z 21006KT 11/M08 A3015 RMK A01 T01111083  RH  025%=      5-min Rain = 0
KSB1 210127Z 21006KT 11/M08 A3015 RMK A01 T01111083  RH  025%=      5-min Rain = 0
KSB1 210128Z 21006KT 11/M08 A3015 RMK A01 T01111083  RH  025%=      5-min Rain = 0
KSB1 210129Z 21005KT 11/M08 A3015 RMK A01 T01111083  RH  025%=      5-min Rain = 0
KSB1 210130Z 21005KT 11/M08 A3015 RMK A01 T01101083  RH  025%=      5-min Rain = 0
KSB1 210131Z 22005KT 11/M08 A3015 RMK A01 T01101083  RH  025%=      5-min Rain = 0
KSB1 210132Z 21005KT 11/M08 A3015 RMK A01 T01081084  RH  025%=      5-min Rain = 0
KSB1 210133Z 21005KT 11/M08 A3015 RMK A01 T01081084  RH  025%=      5-min Rain = 0
KSB1 210134Z 21005KT 11/M08 A3015 RMK A01 T01071084  RH  025%=      5-min Rain = 0
KSB1 210135Z 21005KT 11/M08 A3015 RMK A01 T01081083  RH  025%=      5-min Rain = 0
KSB1 210136Z 21005KT 11/M08 A3014 RMK A01 T01081083  RH  025%=      5-min Rain = 0
KSB1 210137Z 21005KT 11/M08 A3014 RMK A01 T01081083  RH  025%=      5-min Rain = 0
KSB1 210138Z 21005KT 11/M08 A3014 RMK A01 T01091083  RH  025%=      5-min Rain = 0
KSB1 210139Z 20005KT 11/M08 A3014 RMK A01 T01101083  RH  025%=      5-min Rain = 0
KSB1 210140Z 21005KT 11/M08 A3014 RMK A01 T01121083  RH  025%=      5-min Rain = 0
KSB1 210141Z 21005KT 11/M08 A3014 RMK A01 T01131083  RH  025%=      5-min Rain = 0
KSB1 210142Z 21005KT 11/M08 A3014 RMK A01 T01131082  RH  025%=      5-min Rain = 0
KSB1 210143Z 20005KT 11/M08 A3014 RMK A01 T01131082  RH  025%=      5-min Rain = 0
KSB1 210144Z 21004KT 11/M08 A3014 RMK A01 T01131082  RH  025%=      5-min Rain = 0
KSB1 210145Z 21004KT 11/M08 A3014 RMK A01 T01131082  RH  025%=      5-min Rain = 0
KSB1 210146Z 21004KT 11/M08 A3014 RMK A01 T01131082  RH  025%=      5-min Rain = 0
KSB1 210147Z 20004KT 11/M08 A3014 RMK A01 T01131081  RH  025%=      5-min Rain = 0
KSB1 210148Z 21004KT 11/M08 A3014 RMK A01 T01141080  RH  025%=      5-min Rain = 0
KSB1 210149Z 21004KT 11/M08 A3014 RMK A01 T01141080  RH  025%=      5-min Rain = 0
KSB1 210150Z 21004KT 12/M08 A3014 RMK A01 T01151080  RH  025%=      5-min Rain = 0
KSB1 210151Z 21004KT 12/M08 A3014 RMK A01 T01151080  RH  025%=      5-min Rain = 0
KSB1 210152Z 21004KT 12/M08 A3014 RMK A01 T01151080  RH  025%=      5-min Rain = 0
KSB1 210153Z 21004KT 12/M08 A3014 RMK A01 T01151080  RH  025%=      5-min Rain = 0
KSB1 210154Z 21004KT 12/M08 A3014 RMK A01 T01161080  RH  025%=      5-min Rain = 0
KSB1 210155Z 21003KT 12/M08 A3014 RMK A01 T01151080  RH  025%=      5-min Rain = 0
KSB1 210156Z 22003KT 12/M08 A3014 RMK A01 T01161080  RH  025%=      5-min Rain = 0
KSB1 210157Z 22003KT 12/M08 A3014 RMK A01 T01161080  RH  025%=      5-min Rain = 0
KSB1 210158Z 21002KT 12/M08 A3014 RMK A01 T01161079  RH  025%=      5-min Rain = 0
KSB1 210159Z 21002KT 12/M08 A3014 RMK A01 T01171080  RH  024%=      5-min Rain = 0
KSB1 210200Z 21002KT 12/M08 A3014 RMK A01 T01171080  RH  024%=      5-min Rain = 0
KSB1 210201Z 21002KT 12/M08 A3014 RMK A01 T01181080  RH  024%=      5-min Rain = 0
KSB1 210202Z 22002KT 12/M08 A3014 RMK A01 T01181080  RH  024%=      5-min Rain = 0
KSB1 210203Z 21003KT 12/M08 A3014 RMK A01 T01181080  RH  024%=      5-min Rain = 0
KSB1 210204Z 21003KT 12/M08 A3014 RMK A01 T01181080  RH  024%=      5-min Rain = 0
KSB1 210205Z 22003KT 12/M08 A3014 RMK A01 T01181080  RH  024%=      5-min Rain = 0
KSB1 210206Z 21003KT 12/M08 A3014 RMK A01 T01181080  RH  024%=      5-min Rain = 0
KSB1 210207Z 21003KT 12/M08 A3014 RMK A01 T01171081  RH  024%=      5-min Rain = 0
KSB1 210208Z 20004KT 12/M08 A3014 RMK A01 T01161081  RH  024%=      5-min Rain = 0
KSB1 210209Z 20003KT 12/M08 A3014 RMK A01 T01171080  RH  024%=      5-min Rain = 0
KSB1 210210Z 21003KT 12/M08 A3014 RMK A01 T01161081  RH  024%=      5-min Rain = 0
KSB1 210211Z 20003KT 12/M08 A3014 RMK A01 T01151081  RH  025%=      5-min Rain = 0
KSB1 210212Z 20004KT 11/M08 A3014 RMK A01 T01141082  RH  025%=      5-min Rain = 0
KSB1 210213Z 20004KT 11/M08 A3014 RMK A01 T01131082  RH  025%=      5-min Rain = 0
KSB1 210214Z 21003KT 11/M08 A3014 RMK A01 T01131081  RH  025%=      5-min Rain = 0
KSB1 210215Z 19003KT 11/M08 A3014 RMK A01 T01121081  RH  025%=      5-min Rain = 0
KSB1 210216Z 19003KT 11/M08 A3014 RMK A01 T01101082  RH  025%=      5-min Rain = 0
KSB1 210217Z 20003KT 11/M08 A3014 RMK A01 T01081082  RH  025%=      5-min Rain = 0
KSB1 210218Z 19004KT 11/M08 A3014 RMK A01 T01071082  RH  026%=      5-min Rain = 0
KSB1 210219Z 20003KT 11/M08 A3014 RMK A01 T01061082  RH  026%=      5-min Rain = 0
KSB1 210220Z 20004KT 11/M08 A3014 RMK A01 T01051082  RH  026%=      5-min Rain = 0
KSB1 210221Z 20005KT 10/M08 A3014 RMK A01 T01031083  RH  026%=      5-min Rain = 0
KSB1 210222Z 21005KT 10/M08 A3014 RMK A01 T01011083  RH  026%=      5-min Rain = 0
KSB1 210223Z 21006KT 10/M08 A3014 RMK A01 T00991084  RH  027%=      5-min Rain = 0
KSB1 210224Z 21006KT 10/M08 A3014 RMK A01 T00971084  RH  027%=      5-min Rain = 0
KSB1 210225Z 21006KT 10/M08 A3014 RMK A01 T00951084  RH  027%=      5-min Rain = 0
KSB1 210226Z 21006KT 09/M09 A3014 RMK A01 T00931085  RH  028%=      5-min Rain = 0
KSB1 210227Z 21007KT 09/M09 A3014 RMK A01 T00921085  RH  028%=      5-min Rain = 0
KSB1 210228Z 21007KT 09/M09 A3014 RMK A01 T00901086  RH  028%=      5-min Rain = 0
KSB1 210229Z 21008KT 09/M09 A3014 RMK A01 T00891086  RH  028%=      5-min Rain = 0
KSB1 210230Z 21008KT 09/M09 A3014 RMK A01 T00881085  RH  029%=      5-min Rain = 0
KSB1 210231Z 20008KT 09/M09 A3014 RMK A01 T00871085  RH  029%=      5-min Rain = 0
KSB1 210232Z 20008KT 09/M09 A3014 RMK A01 T00871085  RH  029%=      5-min Rain = 0
KSB1 210233Z 20008KT 09/M09 A3014 RMK A01 T00871086  RH  028%=      5-min Rain = 0
KSB1 210234Z 20008KT 09/M09 A3014 RMK A01 T00861086  RH  029%=      5-min Rain = 0
KSB1 210235Z 20008KT 09/M09 A3014 RMK A01 T00871085  RH  029%=      5-min Rain = 0
KSB1 210236Z 20008KT 09/M09 A3014 RMK A01 T00881085  RH  029%=      5-min Rain = 0
KSB1 210237Z 19009KT 09/M09 A3014 RMK A01 T00881085  RH  028%=      5-min Rain = 0
KSB1 210238Z 19009KT 09/M09 A3014 RMK A01 T00891085  RH  028%=      5-min Rain = 0
KSB1 210239Z 19008KT 09/M09 A3014 RMK A01 T00891085  RH  028%=      5-min Rain = 0
KSB1 210240Z 18008KT 09/M09 A3014 RMK A01 T00881086  RH  028%=      5-min Rain = 0
KSB1 210241Z 18008KT 09/M09 A3014 RMK A01 T00881086  RH  028%=      5-min Rain = 0
KSB1 210242Z 18008KT 09/M09 A3014 RMK A01 T00871086  RH  028%=      5-min Rain = 0
KSB1 210243Z 19008KT 09/M09 A3014 RMK A01 T00871086  RH  028%=      5-min Rain = 0
KSB1 210244Z 19007KT 09/M09 A3014 RMK A01 T00861086  RH  029%=      5-min Rain = 0
KSB1 210245Z 19008KT 09/M09 A3014 RMK A01 T00861085  RH  029%=      5-min Rain = 0
KSB1 210246Z 19008KT 09/M09 A3014 RMK A01 T00861086  RH  029%=      5-min Rain = 0
KSB1 210247Z 19008KT 09/M09 A3014 RMK A01 T00861085  RH  029%=      5-min Rain = 0
KSB1 210248Z 19008KT 09/M08 A3014 RMK A01 T00871084  RH  029%=      5-min Rain = 0
KSB1 210249Z 19007KT 09/M08 A3014 RMK A01 T00881084  RH  029%=      5-min Rain = 0
KSB1 210250Z 18007KT 09/M08 A3014 RMK A01 T00891083  RH  029%=      5-min Rain = 0
KSB1 210251Z 19007KT 09/M08 A3014 RMK A01 T00881084  RH  029%=      5-min Rain = 0
KSB1 210252Z 19007KT 09/M08 A3014 RMK A01 T00891084  RH  029%=      5-min Rain = 0
KSB1 210253Z 19007KT 09/M08 A3014 RMK A01 T00881084  RH  029%=      5-min Rain = 0
KSB1 210254Z 19007KT 09/M09 A3014 RMK A01 T00851086  RH  029%=      5-min Rain = 0
KSB1 210255Z 20007KT 08/M09 A3014 RMK A01 T00831085  RH  029%=      5-min Rain = 0
KSB1 210256Z 20007KT 08/M09 A3014 RMK A01 T00821085  RH  030%=      5-min Rain = 0
KSB1 210257Z 20007KT 08/M08 A3014 RMK A01 T00821084  RH  030%=      5-min Rain = 0
KSB1 210258Z 20007KT 08/M08 A3014 RMK A01 T00811084  RH  030%=      5-min Rain = 0
KSB1 210259Z 20007KT 08/M08 A3014 RMK A01 T00821084  RH  030%=      5-min Rain = 0
KSB1 210300Z 20008KT 08/M08 A3014 RMK A01 T00821083  RH  030%=      5-min Rain = 0
KSB1 210301Z 21008KT 08/M08 A3014 RMK A01 T00821083  RH  030%=      5-min Rain = 0
KSB1 210302Z 21008KT 08/M08 A3014 RMK A01 T00821083  RH  030%=      5-min Rain = 0
KSB1 210303Z 21008KT 08/M08 A3014 RMK A01 T00811083  RH  030%=      5-min Rain = 0
KSB1 210304Z 21009KT 08/M08 A3014 RMK A01 T00811082  RH  031%=      5-min Rain = 0
KSB1 210305Z 21009KT 08/M08 A3014 RMK A01 T00811082  RH  031%=      5-min Rain = 0
KSB1 210306Z 21010KT 08/M08 A3014 RMK A01 T00821081  RH  031%=      5-min Rain = 0
KSB1 210307Z 21010KT 08/M08 A3014 RMK A01 T00821081  RH  030%=      5-min Rain = 0
KSB1 210308Z 21010KT 08/M08 A3014 RMK A01 T00831081  RH  031%=      5-min Rain = 0
KSB1 210309Z 21010KT 08/M08 A3014 RMK A01 T00841079  RH  031%=      5-min Rain = 0
KSB1 210310Z 21010KT 09/M08 A3014 RMK A01 T00861079  RH  030%=      5-min Rain = 0
KSB1 210311Z 21010KT 09/M08 A3014 RMK A01 T00881078  RH  030%=      5-min Rain = 0
KSB1 210312Z 20010KT 09/M08 A3014 RMK A01 T00891076  RH  030%=      5-min Rain = 0
KSB1 210313Z 20010KT 09/M08 A3014 RMK A01 T00911077  RH  030%=      5-min Rain = 0
KSB1 210314Z 20010KT 09/M08 A3014 RMK A01 T00931076  RH  030%=      5-min Rain = 0
KSB1 210315Z 20010KT 09/M08 A3014 RMK A01 T00941076  RH  029%=      5-min Rain = 0
KSB1 210316Z 20010KT 10/M08 A3014 RMK A01 T00951075  RH  029%=      5-min Rain = 0
KSB1 210317Z 20010KT 10/M08 A3014 RMK A01 T00951075  RH  029%=      5-min Rain = 0
KSB1 210318Z 20010KT 10/M08 A3014 RMK A01 T00961075  RH  029%=      5-min Rain = 0
KSB1 210319Z 19010KT 10/M08 A3014 RMK A01 T00971075  RH  029%=      5-min Rain = 0
KSB1 210320Z 20010KT 10/M08 A3014 RMK A01 T00981075  RH  029%=      5-min Rain = 0
KSB1 210321Z 19010KT 10/M08 A3014 RMK A01 T00961076  RH  029%=      5-min Rain = 0
KSB1 210322Z 20010KT 10/M08 A3014 RMK A01 T00961075  RH  029%=      5-min Rain = 0
KSB1 210323Z 19010KT 10/M08 A3014 RMK A01 T00951076  RH  029%=      5-min Rain = 0
KSB1 210324Z 19010KT 10/M08 A3014 RMK A01 T00951075  RH  029%=      5-min Rain = 0
KSB1 210325Z 19010KT 09/M08 A3014 RMK A01 T00941076  RH  029%=      5-min Rain = 0
KSB1 210326Z 19010KT 09/M08 A3014 RMK A01 T00941075  RH  030%=      5-min Rain = 0
KSB1 210327Z 19010KT 09/M08 A3014 RMK A01 T00941075  RH  030%=      5-min Rain = 0
KSB1 210328Z 19010KT 09/M08 A3014 RMK A01 T00941075  RH  030%=      5-min Rain = 0
KSB1 210329Z 19010KT 09/M08 A3014 RMK A01 T00941075  RH  030%=      5-min Rain = 0
KSB1 210330Z 19010KT 10/M07 A3014 RMK A01 T00961074  RH  029%=      5-min Rain = 0
KSB1 210331Z 20010KT 10/M08 A3014 RMK A01 T00961075  RH  029%=      5-min Rain = 0
KSB1 210332Z 20010KT 09/M08 A3014 RMK A01 T00941076  RH  029%=      5-min Rain = 0
KSB1 210333Z 19011KT 09/M08 A3014 RMK A01 T00941075  RH  030%=      5-min Rain = 0
KSB1 210334Z 20011KT 09/M08 A3014 RMK A01 T00931075  RH  030%=      5-min Rain = 0
KSB1 210335Z 19011KT 09/M08 A3014 RMK A01 T00931075  RH  030%=      5-min Rain = 0
KSB1 210336Z 19011KT 09/M08 A3014 RMK A01 T00931075  RH  030%=      5-min Rain = 0
KSB1 210337Z 20010KT 09/M08 A3013 RMK A01 T00931075  RH  030%=      5-min Rain = 0
KSB1 210338Z 20011KT 09/M08 A3013 RMK A01 T00931075  RH  030%=      5-min Rain = 0
KSB1 210339Z 20010KT 09/M08 A3013 RMK A01 T00921075  RH  030%=      5-min Rain = 0
KSB1 210340Z 19010KT 09/M08 A3013 RMK A01 T00911075  RH  030%=      5-min Rain = 0
KSB1 210341Z 19010KT 09/M08 A3013 RMK A01 T00911075  RH  030%=      5-min Rain = 0
KSB1 210342Z 19010KT 09/M08 A3013 RMK A01 T00901075  RH  030%=      5-min Rain = 0
KSB1 210343Z 19010KT 09/M08 A3013 RMK A01 T00901075  RH  030%=      5-min Rain = 0
KSB1 210344Z 19011KT 09/M08 A3013 RMK A01 T00901075  RH  030%=      5-min Rain = 0
KSB1 210345Z 20011KT 09/M07 A3013 RMK A01 T00901074  RH  030%=      5-min Rain = 0
KSB1 210346Z 20010KT 09/M08 A3013 RMK A01 T00891075  RH  030%=      5-min Rain = 0
KSB1 210347Z 19010KT 09/M08 A3013 RMK A01 T00881076  RH  031%=      5-min Rain = 0
KSB1 210348Z 19011KT 09/M08 A3012 RMK A01 T00871075  RH  031%=      5-min Rain = 0
KSB1 210349Z 19010KT 09/M07 A3012 RMK A01 T00881074  RH  031%=      5-min Rain = 0
KSB1 210350Z 20010KT 09/M07 A3012 RMK A01 T00911073  RH  031%=      5-min Rain = 0
KSB1 210351Z 19010KT 09/M08 A3012 RMK A01 T00911075  RH  030%=      5-min Rain = 0
KSB1 210352Z 19011KT 09/M08 A3012 RMK A01 T00901075  RH  030%=      5-min Rain = 0
KSB1 210353Z 19010KT 09/M07 A3012 RMK A01 T00921074  RH  030%=      5-min Rain = 0
KSB1 210354Z 18010KT 09/M07 A3012 RMK A01 T00921074  RH  030%=      5-min Rain = 0
KSB1 210355Z 18009KT 09/M07 A3012 RMK A01 T00931074  RH  030%=      5-min Rain = 0
KSB1 210356Z 19008KT 09/M07 A3012 RMK A01 T00931074  RH  030%=      5-min Rain = 0
KSB1 210357Z 20008KT 09/M08 A3012 RMK A01 T00911076  RH  030%=      5-min Rain = 0
KSB1 210358Z 20007KT 09/M08 A3012 RMK A01 T00881076  RH  030%=      5-min Rain = 0
KSB1 210359Z 19008KT 09/M08 A3012 RMK A01 T00871076  RH  031%=      5-min Rain = 0
KSB1 210400Z 20007KT 09/M08 A3012 RMK A01 T00871075  RH  031%=      5-min Rain = 0
KSB1 210401Z 21007KT 09/M08 A3012 RMK A01 T00881075  RH  031%=      5-min Rain = 0
KSB1 210402Z 21009KT 09/M08 A3012 RMK A01 T00881076  RH  031%=      5-min Rain = 0
KSB1 210403Z 21009KT 09/M08 A3012 RMK A01 T00861076  RH  031%=      5-min Rain = 0
KSB1 210404Z 21009KT 09/M08 A3012 RMK A01 T00871075  RH  031%=      5-min Rain = 0
KSB1 210405Z 21009KT 09/M07 A3012 RMK A01 T00891074  RH  031%=      5-min Rain = 0
KSB1 210406Z 21009KT 09/M08 A3012 RMK A01 T00881075  RH  031%=      5-min Rain = 0
KSB1 210407Z 21007KT 09/M08 A3012 RMK A01 T00881075  RH  031%=      5-min Rain = 0
KSB1 210408Z 22008KT 09/M07 A3012 RMK A01 T00871074  RH  031%=      5-min Rain = 0
KSB1 210409Z 21008KT 09/M07 A3012 RMK A01 T00871074  RH  031%=      5-min Rain = 0
KSB1 210410Z 21007KT 09/M07 A3012 RMK A01 T00881073  RH  031%=      5-min Rain = 0
KSB1 210411Z 22008KT 09/M07 A3012 RMK A01 T00891072  RH  031%=      5-min Rain = 0
KSB1 210412Z 21008KT 09/M07 A3012 RMK A01 T00911071  RH  031%=      5-min Rain = 0
KSB1 210413Z 22007KT 09/M07 A3012 RMK A01 T00931071  RH  031%=      5-min Rain = 0
KSB1 210414Z 22007KT 09/M07 A3012 RMK A01 T00931071  RH  031%=      5-min Rain = 0
KSB1 210415Z 22007KT 09/M07 A3012 RMK A01 T00931071  RH  031%=      5-min Rain = 0
KSB1 210416Z 22007KT 09/M07 A3012 RMK A01 T00931070  RH  031%=      5-min Rain = 0
KSB1 210417Z 22007KT 09/M07 A3012 RMK A01 T00931070  RH  031%=      5-min Rain = 0
KSB1 210418Z 22008KT 09/M07 A3012 RMK A01 T00931070  RH  031%=      5-min Rain = 0
KSB1 210419Z 22008KT 09/M07 A3012 RMK A01 T00931069  RH  031%=      5-min Rain = 0
KSB1 210420Z 22009KT 09/M07 A3012 RMK A01 T00931069  RH  031%=      5-min Rain = 0
KSB1 210421Z 22008KT 09/M07 A3012 RMK A01 T00941069  RH  031%=      5-min Rain = 0
KSB1 210422Z 22009KT 09/M07 A3012 RMK A01 T00941069  RH  031%=      5-min Rain = 0
KSB1 210423Z 22009KT 10/M07 A3012 RMK A01 T00961068  RH  031%=      5-min Rain = 0
KSB1 210424Z 22009KT 10/M07 A3012 RMK A01 T00981067  RH  031%=      5-min Rain = 0
KSB1 210425Z 22009KT 10/M07 A3012 RMK A01 T01001067  RH  030%=      5-min Rain = 0
KSB1 210426Z 21010KT 10/M07 A3012 RMK A01 T01021067  RH  030%=      5-min Rain = 0
KSB1 210427Z 22010KT 10/M07 A3012 RMK A01 T01041066  RH  030%=      5-min Rain = 0
KSB1 210428Z 21011KT 11/M07 A3012 RMK A01 T01061066  RH  029%=      5-min Rain = 0
KSB1 210429Z 22010KT 11/M07 A3012 RMK A01 T01081067  RH  029%=      5-min Rain = 0
KSB1 210430Z 22010KT 11/M07 A3012 RMK A01 T01051069  RH  029%=      5-min Rain = 0
KSB1 210431Z 21010KT 10/M07 A3012 RMK A01 T01041069  RH  029%=      5-min Rain = 0
KSB1 210432Z 22010KT 10/M07 A3012 RMK A01 T01021069  RH  029%=      5-min Rain = 0
KSB1 210433Z 22010KT 10/M07 A3012 RMK A01 T01001069  RH  030%=      5-min Rain = 0
KSB1 210434Z 22009KT 10/M07 A3012 RMK A01 T00991069  RH  030%=      5-min Rain = 0
KSB1 210435Z 22009KT 10/M07 A3012 RMK A01 T01001068  RH  030%=      5-min Rain = 0
KSB1 210436Z 22010KT 10/M07 A3012 RMK A01 T01001068  RH  030%=      5-min Rain = 0
KSB1 210437Z 22010KT 10/M07 A3012 RMK A01 T01001069  RH  030%=      5-min Rain = 0
KSB1 210438Z 21011KT 10/M07 A3012 RMK A01 T00991069  RH  030%=      5-min Rain = 0
KSB1 210439Z 21010KT 10/M07 A3012 RMK A01 T00981069  RH  030%=      5-min Rain = 0
KSB1 210440Z 21010KT 10/M07 A3012 RMK A01 T00981069  RH  030%=      5-min Rain = 0
KSB1 210441Z 21010KT 10/M07 A3012 RMK A01 T00971068  RH  030%=      5-min Rain = 0
KSB1 210442Z 22010KT 10/M07 A3012 RMK A01 T00981068  RH  030%=      5-min Rain = 0
KSB1 210443Z 22010KT 10/M07 A3012 RMK A01 T00981068  RH  030%=      5-min Rain = 0
KSB1 210444Z 21010KT 10/M07 A3012 RMK A01 T00971069  RH  030%=      5-min Rain = 0
KSB1 210445Z 21010KT 10/M07 A3012 RMK A01 T00971068  RH  030%=      5-min Rain = 0
KSB1 210446Z 21010KT 10/M07 A3012 RMK A01 T00971068  RH  030%=      5-min Rain = 0
KSB1 210447Z 21010KT 10/M07 A3012 RMK A01 T00961069  RH  030%=      5-min Rain = 0
KSB1 210448Z 22010KT 10/M07 A3012 RMK A01 T00971068  RH  031%=      5-min Rain = 0
KSB1 210449Z 22010KT 10/M07 A3012 RMK A01 T00971068  RH  030%=      5-min Rain = 0
KSB1 210450Z 22009KT 10/M07 A3012 RMK A01 T00971069  RH  030%=      5-min Rain = 0
KSB1 210451Z 22010KT 10/M07 A3012 RMK A01 T00961069  RH  031%=      5-min Rain = 0
KSB1 210452Z 21010KT 10/M07 A3012 RMK A01 T00961069  RH  031%=      5-min Rain = 0
KSB1 210453Z 21009KT 10/M07 A3012 RMK A01 T00951069  RH  031%=      5-min Rain = 0
KSB1 210454Z 21009KT 09/M07 A3012 RMK A01 T00941070  RH  031%=      5-min Rain = 0
KSB1 210455Z 21009KT 09/M07 A3012 RMK A01 T00931070  RH  031%=      5-min Rain = 0
KSB1 210456Z 21009KT 09/M07 A3012 RMK A01 T00921069  RH  031%=      5-min Rain = 0
KSB1 210457Z 21009KT 09/M07 A3011 RMK A01 T00911070  RH  031%=      5-min Rain = 0
KSB1 210458Z 21009KT 09/M07 A3012 RMK A01 T00921070  RH  031%=      5-min Rain = 0
KSB1 210459Z 21009KT 09/M07 A3011 RMK A01 T00921070  RH  031%=      5-min Rain = 0
KSB1 210500Z 20009KT 09/M07 A3011 RMK A01 T00931069  RH  031%=      5-min Rain = 0
KSB1 210501Z 21009KT 09/M07 A3012 RMK A01 T00921070  RH  031%=      5-min Rain = 0
KSB1 210502Z 21008KT 09/M07 A3012 RMK A01 T00921070  RH  031%=      5-min Rain = 0
KSB1 210503Z 21007KT 09/M07 A3012 RMK A01 T00921070  RH  031%=      5-min Rain = 0
KSB1 210504Z 21007KT 09/M07 A3012 RMK A01 T00911070  RH  031%=      5-min Rain = 0
KSB1 210505Z 21007KT 09/M07 A3012 RMK A01 T00911070  RH  031%=      5-min Rain = 0
KSB1 210506Z 21007KT 09/M07 A3012 RMK A01 T00931069  RH  031%=      5-min Rain = 0
KSB1 210507Z 21007KT 09/M07 A3012 RMK A01 T00931070  RH  031%=      5-min Rain = 0
KSB1 210508Z 22006KT 09/M07 A3012 RMK A01 T00931070  RH  031%=      5-min Rain = 0
KSB1 210509Z 22006KT 09/M07 A3012 RMK A01 T00931070  RH  031%=      5-min Rain = 0
KSB1 210510Z 21003KT 09/M07 A3012 RMK A01 T00901072  RH  031%=      5-min Rain = 0
KSB1 210511Z 21003KT 09/M07 A3012 RMK A01 T00881073  RH  031%=      5-min Rain = 0
KSB1 210512Z 19003KT 09/M07 A3012 RMK A01 T00881071  RH  032%=      5-min Rain = 0
KSB1 210513Z 21004KT 09/M07 A3012 RMK A01 T00881071  RH  032%=      5-min Rain = 0
KSB1 210514Z 22006KT 09/M07 A3012 RMK A01 T00871072  RH  032%=      5-min Rain = 0
KSB1 210515Z 21006KT 09/M07 A3012 RMK A01 T00861073  RH  032%=      5-min Rain = 0
KSB1 210516Z 21006KT 09/M07 A3012 RMK A01 T00851073  RH  032%=      5-min Rain = 0
KSB1 210517Z 21006KT 09/M07 A3012 RMK A01 T00851072  RH  032%=      5-min Rain = 0
KSB1 210518Z 21006KT 08/M07 A3012 RMK A01 T00841073  RH  032%=      5-min Rain = 0
KSB1 210519Z 21007KT 08/M07 A3012 RMK A01 T00831073  RH  032%=      5-min Rain = 0
KSB1 210520Z 19005KT 08/M07 A3012 RMK A01 T00801074  RH  033%=      5-min Rain = 0
KSB1 210521Z 18005KT 08/M07 A3012 RMK A01 T00801072  RH  033%=      5-min Rain = 0
KSB1 210522Z 18006KT 08/M07 A3012 RMK A01 T00841070  RH  033%=      5-min Rain = 0
KSB1 210523Z 18006KT 09/M07 A3012 RMK A01 T00861070  RH  032%=      5-min Rain = 0
KSB1 210524Z 19006KT 09/M07 A3012 RMK A01 T00871070  RH  032%=      5-min Rain = 0
KSB1 210525Z 20007KT 09/M07 A3012 RMK A01 T00901069  RH  032%=      5-min Rain = 0
KSB1 210526Z 20007KT 09/M07 A3012 RMK A01 T00911070  RH  031%=      5-min Rain = 0
KSB1 210527Z 20008KT 09/M07 A3012 RMK A01 T00901071  RH  031%=      5-min Rain = 0
KSB1 210528Z 20008KT 09/M07 A3012 RMK A01 T00891072  RH  031%=      5-min Rain = 0
KSB1 210529Z 20008KT 09/M07 A3012 RMK A01 T00881072  RH  031%=      5-min Rain = 0
KSB1 210530Z 20007KT 09/M07 A3012 RMK A01 T00871072  RH  032%=      5-min Rain = 0
KSB1 210531Z 20006KT 09/M07 A3012 RMK A01 T00871072  RH  032%=      5-min Rain = 0
KSB1 210532Z 20006KT 09/M07 A3012 RMK A01 T00881072  RH  032%=      5-min Rain = 0
KSB1 210533Z 21006KT 09/M07 A3012 RMK A01 T00871072  RH  032%=      5-min Rain = 0
KSB1 210534Z 21006KT 09/M07 A3012 RMK A01 T00881072  RH  032%=      5-min Rain = 0
KSB1 210535Z 21006KT 09/M07 A3012 RMK A01 T00861073  RH  032%=      5-min Rain = 0
KSB1 210536Z 21007KT 09/M07 A3012 RMK A01 T00851072  RH  032%=      5-min Rain = 0
KSB1 210537Z 21006KT 09/M07 A3012 RMK A01 T00871071  RH  032%=      5-min Rain = 0
KSB1 210538Z 20006KT 09/M07 A3011 RMK A01 T00881071  RH  032%=      5-min Rain = 0
KSB1 210539Z 20006KT 09/M07 A3011 RMK A01 T00871071  RH  032%=      5-min Rain = 0
KSB1 210540Z 20006KT 09/M07 A3011 RMK A01 T00851073  RH  032%=      5-min Rain = 0
KSB1 210541Z 21007KT 08/M07 A3011 RMK A01 T00831073  RH  032%=      5-min Rain = 0
KSB1 210542Z 21007KT 08/M07 A3012 RMK A01 T00821073  RH  033%=      5-min Rain = 0
KSB1 210543Z 20007KT 08/M07 A3012 RMK A01 T00791073  RH  033%=      5-min Rain = 0
KSB1 210544Z 20008KT 08/M07 A3012 RMK A01 T00831070  RH  033%=      5-min Rain = 0
KSB1 210545Z 21007KT 09/M07 A3012 RMK A01 T00881070  RH  032%=      5-min Rain = 0
KSB1 210546Z 21007KT 09/M07 A3012 RMK A01 T00881072  RH  032%=      5-min Rain = 0
KSB1 210547Z 20006KT 09/M07 A3012 RMK A01 T00861073  RH  032%=      5-min Rain = 0
KSB1 210548Z 21006KT 09/M07 A3012 RMK A01 T00851073  RH  032%=      5-min Rain = 0
KSB1 210549Z 21006KT 09/M07 A3012 RMK A01 T00851073  RH  032%=      5-min Rain = 0
KSB1 210550Z 20005KT 08/M07 A3012 RMK A01 T00831073  RH  032%=      5-min Rain = 0
KSB1 210551Z 20005KT 08/M07 A3012 RMK A01 T00821073  RH  032%=      5-min Rain = 0
KSB1 210552Z 21005KT 08/M07 A3012 RMK A01 T00821073  RH  033%=      5-min Rain = 0
KSB1 210553Z 22006KT 08/M07 A3012 RMK A01 T00821073  RH  033%=      5-min Rain = 0
KSB1 210554Z 22006KT 08/M07 A3012 RMK A01 T00821073  RH  033%=      5-min Rain = 0
KSB1 210555Z 21005KT 08/M07 A3012 RMK A01 T00801074  RH  033%=      5-min Rain = 0
KSB1 210556Z 21004KT 08/M07 A3012 RMK A01 T00791074  RH  033%=      5-min Rain = 0
KSB1 210557Z 22004KT 08/M07 A3012 RMK A01 T00791073  RH  033%=      5-min Rain = 0
KSB1 210558Z 22005KT 08/M07 A3012 RMK A01 T00801073  RH  033%=      5-min Rain = 0
KSB1 210559Z 22004KT 08/M07 A3012 RMK A01 T00811072  RH  033%=      5-min Rain = 0

Page generated in 0.0373 seconds.